<?xml version="1.0" encoding="UTF-8" standalone="no" ?>
<gpx xmlns="http://www.topografix.com/GPX/1/1" xmlns:xsi="http://www.w3.org/2001/XMLSchema-instance" xsi:schemaLocation="http://www.topografix.com/GPX/1/1 http://www.topografix.com/GPX/1/1/gpx.xsd" version="1.1" creator="VisuGPX - https://www.visugpx.com">
  <metadata>
    <name>77- Mont Aigu et sentier des carriers</name>
    <desc><![CDATA[Départ au carrefour du Coq de la Faisanderie ,près du carrefour de la Libération.
On commence par le sentier en spirale du  Mont Aigu,puis vers le Sud on rejoint la route des gorges de Franchard vers l'Ouest.Vers le Sud la route Jean traverse les anciennes carrieres,couvertes d'écales,déchets laissés par les carriers.On revient par la route du Sommet vers l'Est,sur les Rochers du Long Boyau.]]></desc>
  </metadata>
  <trk>
    <name><![CDATA[2018-01-27 12:22:27]]></name>
    <trkseg>
      <trkpt lat="48.40477" lon="2.6781">
        <ele>68.39</ele>
        <time>2018-01-27T08:13:13Z</time>
      </trkpt>
      <trkpt lat="48.40477" lon="2.6781">
        <ele>69.35</ele>
        <time>2018-01-27T08:13:14Z</time>
      </trkpt>
      <trkpt lat="48.40477" lon="2.6781">
        <ele>68.87</ele>
        <time>2018-01-27T08:13:15Z</time>
      </trkpt>
      <trkpt lat="48.40476" lon="2.67809">
        <ele>69.35</ele>
        <time>2018-01-27T08:13:38Z</time>
      </trkpt>
      <trkpt lat="48.40476" lon="2.67807">
        <ele>68.87</ele>
        <time>2018-01-27T08:13:59Z</time>
      </trkpt>
      <trkpt lat="48.40479" lon="2.67808">
        <ele>69.35</ele>
        <time>2018-01-27T08:14:22Z</time>
      </trkpt>
      <trkpt lat="48.40479" lon="2.6781">
        <ele>68.87</ele>
        <time>2018-01-27T08:14:49Z</time>
      </trkpt>
      <trkpt lat="48.40477" lon="2.67806">
        <ele>69.35</ele>
        <time>2018-01-27T08:15:04Z</time>
      </trkpt>
      <trkpt lat="48.40475" lon="2.67804">
        <ele>69.35</ele>
        <time>2018-01-27T08:15:18Z</time>
      </trkpt>
      <trkpt lat="48.40478" lon="2.67801">
        <ele>69.83</ele>
        <time>2018-01-27T08:15:25Z</time>
      </trkpt>
      <trkpt lat="48.40481" lon="2.67798">
        <ele>69.35</ele>
        <time>2018-01-27T08:15:31Z</time>
      </trkpt>
      <trkpt lat="48.40483" lon="2.67796">
        <ele>69.35</ele>
        <time>2018-01-27T08:15:34Z</time>
      </trkpt>
      <trkpt lat="48.40484" lon="2.67796">
        <ele>69.35</ele>
        <time>2018-01-27T08:15:35Z</time>
      </trkpt>
      <trkpt lat="48.40485" lon="2.67795">
        <ele>69.35</ele>
        <time>2018-01-27T08:15:36Z</time>
      </trkpt>
      <trkpt lat="48.40486" lon="2.67794">
        <ele>69.35</ele>
        <time>2018-01-27T08:15:37Z</time>
      </trkpt>
      <trkpt lat="48.40487" lon="2.67793">
        <ele>68.87</ele>
        <time>2018-01-27T08:15:38Z</time>
      </trkpt>
      <trkpt lat="48.40488" lon="2.6779">
        <ele>69.83</ele>
        <time>2018-01-27T08:15:40Z</time>
      </trkpt>
      <trkpt lat="48.40497" lon="2.67776">
        <ele>69.83</ele>
        <time>2018-01-27T08:15:54Z</time>
      </trkpt>
      <trkpt lat="48.40499" lon="2.67747">
        <ele>70.31</ele>
        <time>2018-01-27T08:16:11Z</time>
      </trkpt>
      <trkpt lat="48.40499" lon="2.67745">
        <ele>69.83</ele>
        <time>2018-01-27T08:16:12Z</time>
      </trkpt>
      <trkpt lat="48.405" lon="2.67744">
        <ele>69.83</ele>
        <time>2018-01-27T08:16:13Z</time>
      </trkpt>
      <trkpt lat="48.405" lon="2.67727">
        <ele>69.83</ele>
        <time>2018-01-27T08:16:25Z</time>
      </trkpt>
      <trkpt lat="48.405" lon="2.67703">
        <ele>69.83</ele>
        <time>2018-01-27T08:16:35Z</time>
      </trkpt>
      <trkpt lat="48.405" lon="2.677">
        <ele>69.35</ele>
        <time>2018-01-27T08:16:36Z</time>
      </trkpt>
      <trkpt lat="48.40501" lon="2.6767">
        <ele>70.31</ele>
        <time>2018-01-27T08:16:51Z</time>
      </trkpt>
      <trkpt lat="48.40502" lon="2.67668">
        <ele>69.83</ele>
        <time>2018-01-27T08:16:52Z</time>
      </trkpt>
      <trkpt lat="48.40507" lon="2.67667">
        <ele>70.31</ele>
        <time>2018-01-27T08:16:58Z</time>
      </trkpt>
      <trkpt lat="48.40508" lon="2.67667">
        <ele>70.79</ele>
        <time>2018-01-27T08:16:59Z</time>
      </trkpt>
      <trkpt lat="48.40521" lon="2.6767">
        <ele>70.79</ele>
        <time>2018-01-27T08:17:12Z</time>
      </trkpt>
      <trkpt lat="48.40535" lon="2.67673">
        <ele>70.31</ele>
        <time>2018-01-27T08:17:23Z</time>
      </trkpt>
      <trkpt lat="48.40542" lon="2.6766">
        <ele>70.31</ele>
        <time>2018-01-27T08:17:35Z</time>
      </trkpt>
      <trkpt lat="48.40542" lon="2.6765">
        <ele>69.83</ele>
        <time>2018-01-27T08:17:44Z</time>
      </trkpt>
      <trkpt lat="48.40542" lon="2.67646">
        <ele>69.83</ele>
        <time>2018-01-27T08:17:46Z</time>
      </trkpt>
      <trkpt lat="48.40543" lon="2.67644">
        <ele>69.83</ele>
        <time>2018-01-27T08:17:47Z</time>
      </trkpt>
      <trkpt lat="48.40542" lon="2.67642">
        <ele>69.83</ele>
        <time>2018-01-27T08:17:48Z</time>
      </trkpt>
      <trkpt lat="48.40542" lon="2.67641">
        <ele>69.83</ele>
        <time>2018-01-27T08:17:49Z</time>
      </trkpt>
      <trkpt lat="48.40541" lon="2.67629">
        <ele>69.83</ele>
        <time>2018-01-27T08:17:58Z</time>
      </trkpt>
      <trkpt lat="48.40539" lon="2.67608">
        <ele>70.31</ele>
        <time>2018-01-27T08:18:11Z</time>
      </trkpt>
      <trkpt lat="48.40539" lon="2.6758">
        <ele>70.31</ele>
        <time>2018-01-27T08:18:26Z</time>
      </trkpt>
      <trkpt lat="48.40537" lon="2.67561">
        <ele>69.35</ele>
        <time>2018-01-27T08:18:37Z</time>
      </trkpt>
      <trkpt lat="48.40533" lon="2.67538">
        <ele>69.83</ele>
        <time>2018-01-27T08:18:51Z</time>
      </trkpt>
      <trkpt lat="48.40532" lon="2.67511">
        <ele>69.83</ele>
        <time>2018-01-27T08:19:04Z</time>
      </trkpt>
      <trkpt lat="48.40529" lon="2.67475">
        <ele>69.83</ele>
        <time>2018-01-27T08:19:21Z</time>
      </trkpt>
      <trkpt lat="48.40527" lon="2.67465">
        <ele>69.83</ele>
        <time>2018-01-27T08:19:27Z</time>
      </trkpt>
      <trkpt lat="48.40525" lon="2.67437">
        <ele>69.83</ele>
        <time>2018-01-27T08:19:40Z</time>
      </trkpt>
      <trkpt lat="48.40522" lon="2.67409">
        <ele>69.83</ele>
        <time>2018-01-27T08:19:55Z</time>
      </trkpt>
      <trkpt lat="48.40522" lon="2.67383">
        <ele>69.35</ele>
        <time>2018-01-27T08:20:09Z</time>
      </trkpt>
      <trkpt lat="48.4052" lon="2.67349">
        <ele>70.31</ele>
        <time>2018-01-27T08:20:28Z</time>
      </trkpt>
      <trkpt lat="48.40518" lon="2.67319">
        <ele>70.31</ele>
        <time>2018-01-27T08:20:44Z</time>
      </trkpt>
      <trkpt lat="48.40515" lon="2.67287">
        <ele>70.31</ele>
        <time>2018-01-27T08:21:01Z</time>
      </trkpt>
      <trkpt lat="48.40513" lon="2.67256">
        <ele>70.79</ele>
        <time>2018-01-27T08:21:18Z</time>
      </trkpt>
      <trkpt lat="48.40513" lon="2.67251">
        <ele>70.31</ele>
        <time>2018-01-27T08:21:21Z</time>
      </trkpt>
      <trkpt lat="48.40512" lon="2.67249">
        <ele>69.83</ele>
        <time>2018-01-27T08:21:22Z</time>
      </trkpt>
      <trkpt lat="48.40513" lon="2.67247">
        <ele>70.31</ele>
        <time>2018-01-27T08:21:23Z</time>
      </trkpt>
      <trkpt lat="48.4051" lon="2.67215">
        <ele>70.31</ele>
        <time>2018-01-27T08:21:39Z</time>
      </trkpt>
      <trkpt lat="48.40507" lon="2.67184">
        <ele>70.79</ele>
        <time>2018-01-27T08:21:56Z</time>
      </trkpt>
      <trkpt lat="48.40505" lon="2.67156">
        <ele>70.31</ele>
        <time>2018-01-27T08:22:13Z</time>
      </trkpt>
      <trkpt lat="48.40504" lon="2.67138">
        <ele>70.79</ele>
        <time>2018-01-27T08:22:26Z</time>
      </trkpt>
      <trkpt lat="48.40502" lon="2.67101">
        <ele>70.79</ele>
        <time>2018-01-27T08:22:42Z</time>
      </trkpt>
      <trkpt lat="48.40498" lon="2.67077">
        <ele>71.27</ele>
        <time>2018-01-27T08:22:58Z</time>
      </trkpt>
      <trkpt lat="48.40497" lon="2.67055">
        <ele>71.27</ele>
        <time>2018-01-27T08:23:10Z</time>
      </trkpt>
      <trkpt lat="48.40498" lon="2.67048">
        <ele>71.76</ele>
        <time>2018-01-27T08:23:14Z</time>
      </trkpt>
      <trkpt lat="48.40498" lon="2.67034">
        <ele>71.27</ele>
        <time>2018-01-27T08:23:23Z</time>
      </trkpt>
      <trkpt lat="48.40497" lon="2.67019">
        <ele>71.76</ele>
        <time>2018-01-27T08:23:30Z</time>
      </trkpt>
      <trkpt lat="48.40496" lon="2.6701">
        <ele>71.27</ele>
        <time>2018-01-27T08:23:33Z</time>
      </trkpt>
      <trkpt lat="48.40495" lon="2.67008">
        <ele>71.27</ele>
        <time>2018-01-27T08:23:34Z</time>
      </trkpt>
      <trkpt lat="48.40495" lon="2.67006">
        <ele>71.27</ele>
        <time>2018-01-27T08:23:35Z</time>
      </trkpt>
      <trkpt lat="48.40492" lon="2.66973">
        <ele>71.27</ele>
        <time>2018-01-27T08:23:51Z</time>
      </trkpt>
      <trkpt lat="48.40492" lon="2.6696">
        <ele>71.76</ele>
        <time>2018-01-27T08:24:00Z</time>
      </trkpt>
      <trkpt lat="48.40491" lon="2.66948">
        <ele>71.76</ele>
        <time>2018-01-27T08:24:07Z</time>
      </trkpt>
      <trkpt lat="48.40488" lon="2.6692">
        <ele>72.24</ele>
        <time>2018-01-27T08:24:22Z</time>
      </trkpt>
      <trkpt lat="48.40485" lon="2.66903">
        <ele>72.72</ele>
        <time>2018-01-27T08:24:30Z</time>
      </trkpt>
      <trkpt lat="48.40484" lon="2.66895">
        <ele>72.24</ele>
        <time>2018-01-27T08:24:33Z</time>
      </trkpt>
      <trkpt lat="48.40485" lon="2.66871">
        <ele>72.72</ele>
        <time>2018-01-27T08:24:46Z</time>
      </trkpt>
      <trkpt lat="48.40484" lon="2.66843">
        <ele>73.2</ele>
        <time>2018-01-27T08:25:04Z</time>
      </trkpt>
      <trkpt lat="48.40484" lon="2.6684">
        <ele>74.16</ele>
        <time>2018-01-27T08:25:06Z</time>
      </trkpt>
      <trkpt lat="48.40484" lon="2.66824">
        <ele>74.16</ele>
        <time>2018-01-27T08:25:16Z</time>
      </trkpt>
      <trkpt lat="48.40484" lon="2.66821">
        <ele>74.16</ele>
        <time>2018-01-27T08:25:17Z</time>
      </trkpt>
      <trkpt lat="48.40484" lon="2.6681">
        <ele>74.16</ele>
        <time>2018-01-27T08:25:21Z</time>
      </trkpt>
      <trkpt lat="48.40484" lon="2.66808">
        <ele>74.64</ele>
        <time>2018-01-27T08:25:22Z</time>
      </trkpt>
      <trkpt lat="48.40483" lon="2.66802">
        <ele>74.16</ele>
        <time>2018-01-27T08:25:25Z</time>
      </trkpt>
      <trkpt lat="48.40483" lon="2.668">
        <ele>73.68</ele>
        <time>2018-01-27T08:25:26Z</time>
      </trkpt>
      <trkpt lat="48.40483" lon="2.66798">
        <ele>73.68</ele>
        <time>2018-01-27T08:25:27Z</time>
      </trkpt>
      <trkpt lat="48.40479" lon="2.66787">
        <ele>74.64</ele>
        <time>2018-01-27T08:25:30Z</time>
      </trkpt>
      <trkpt lat="48.40474" lon="2.66765">
        <ele>73.68</ele>
        <time>2018-01-27T08:25:45Z</time>
      </trkpt>
      <trkpt lat="48.40474" lon="2.66746">
        <ele>74.64</ele>
        <time>2018-01-27T08:25:59Z</time>
      </trkpt>
      <trkpt lat="48.40473" lon="2.66728">
        <ele>74.16</ele>
        <time>2018-01-27T08:26:09Z</time>
      </trkpt>
      <trkpt lat="48.40471" lon="2.6671">
        <ele>74.64</ele>
        <time>2018-01-27T08:26:22Z</time>
      </trkpt>
      <trkpt lat="48.40471" lon="2.66683">
        <ele>75.6</ele>
        <time>2018-01-27T08:26:38Z</time>
      </trkpt>
      <trkpt lat="48.40471" lon="2.66674">
        <ele>75.6</ele>
        <time>2018-01-27T08:26:44Z</time>
      </trkpt>
      <trkpt lat="48.40465" lon="2.66641">
        <ele>75.6</ele>
        <time>2018-01-27T08:27:01Z</time>
      </trkpt>
      <trkpt lat="48.40466" lon="2.66626">
        <ele>75.6</ele>
        <time>2018-01-27T08:27:13Z</time>
      </trkpt>
      <trkpt lat="48.40467" lon="2.66609">
        <ele>75.6</ele>
        <time>2018-01-27T08:27:26Z</time>
      </trkpt>
      <trkpt lat="48.40469" lon="2.66595">
        <ele>75.6</ele>
        <time>2018-01-27T08:27:36Z</time>
      </trkpt>
      <trkpt lat="48.40473" lon="2.66571">
        <ele>76.08</ele>
        <time>2018-01-27T08:27:49Z</time>
      </trkpt>
      <trkpt lat="48.40475" lon="2.6655">
        <ele>77.52</ele>
        <time>2018-01-27T08:28:01Z</time>
      </trkpt>
      <trkpt lat="48.40476" lon="2.66536">
        <ele>77.52</ele>
        <time>2018-01-27T08:28:07Z</time>
      </trkpt>
      <trkpt lat="48.40478" lon="2.66527">
        <ele>78.48</ele>
        <time>2018-01-27T08:28:13Z</time>
      </trkpt>
      <trkpt lat="48.40489" lon="2.66509">
        <ele>79.45</ele>
        <time>2018-01-27T08:28:28Z</time>
      </trkpt>
      <trkpt lat="48.4049" lon="2.66497">
        <ele>80.89</ele>
        <time>2018-01-27T08:28:38Z</time>
      </trkpt>
      <trkpt lat="48.40496" lon="2.66484">
        <ele>82.33</ele>
        <time>2018-01-27T08:28:51Z</time>
      </trkpt>
      <trkpt lat="48.40506" lon="2.66473">
        <ele>83.29</ele>
        <time>2018-01-27T08:29:07Z</time>
      </trkpt>
      <trkpt lat="48.40516" lon="2.6646">
        <ele>84.25</ele>
        <time>2018-01-27T08:29:21Z</time>
      </trkpt>
      <trkpt lat="48.40525" lon="2.66447">
        <ele>86.66</ele>
        <time>2018-01-27T08:29:37Z</time>
      </trkpt>
      <trkpt lat="48.40528" lon="2.66435">
        <ele>88.1</ele>
        <time>2018-01-27T08:29:52Z</time>
      </trkpt>
      <trkpt lat="48.40532" lon="2.66424">
        <ele>90.5</ele>
        <time>2018-01-27T08:30:06Z</time>
      </trkpt>
      <trkpt lat="48.40531" lon="2.66408">
        <ele>92.9</ele>
        <time>2018-01-27T08:30:18Z</time>
      </trkpt>
      <trkpt lat="48.40528" lon="2.66399">
        <ele>94.35</ele>
        <time>2018-01-27T08:30:30Z</time>
      </trkpt>
      <trkpt lat="48.40532" lon="2.66394">
        <ele>95.79</ele>
        <time>2018-01-27T08:30:42Z</time>
      </trkpt>
      <trkpt lat="48.40534" lon="2.66388">
        <ele>95.79</ele>
        <time>2018-01-27T08:30:51Z</time>
      </trkpt>
      <trkpt lat="48.4054" lon="2.66377">
        <ele>96.27</ele>
        <time>2018-01-27T08:31:02Z</time>
      </trkpt>
      <trkpt lat="48.40539" lon="2.66362">
        <ele>95.31</ele>
        <time>2018-01-27T08:31:15Z</time>
      </trkpt>
      <trkpt lat="48.40535" lon="2.66335">
        <ele>96.75</ele>
        <time>2018-01-27T08:31:28Z</time>
      </trkpt>
      <trkpt lat="48.40537" lon="2.66321">
        <ele>98.67</ele>
        <time>2018-01-27T08:31:40Z</time>
      </trkpt>
      <trkpt lat="48.40535" lon="2.66302">
        <ele>99.63</ele>
        <time>2018-01-27T08:31:54Z</time>
      </trkpt>
      <trkpt lat="48.40534" lon="2.66289">
        <ele>100.6</ele>
        <time>2018-01-27T08:32:08Z</time>
      </trkpt>
      <trkpt lat="48.40532" lon="2.66275">
        <ele>100.11</ele>
        <time>2018-01-27T08:32:20Z</time>
      </trkpt>
      <trkpt lat="48.40523" lon="2.66257">
        <ele>100.11</ele>
        <time>2018-01-27T08:32:37Z</time>
      </trkpt>
      <trkpt lat="48.40517" lon="2.66239">
        <ele>100.6</ele>
        <time>2018-01-27T08:32:54Z</time>
      </trkpt>
      <trkpt lat="48.40509" lon="2.66229">
        <ele>102.52</ele>
        <time>2018-01-27T08:33:12Z</time>
      </trkpt>
      <trkpt lat="48.40507" lon="2.66232">
        <ele>103.48</ele>
        <time>2018-01-27T08:33:30Z</time>
      </trkpt>
      <trkpt lat="48.40497" lon="2.66222">
        <ele>104.44</ele>
        <time>2018-01-27T08:33:45Z</time>
      </trkpt>
      <trkpt lat="48.40491" lon="2.6622">
        <ele>105.4</ele>
        <time>2018-01-27T08:34:06Z</time>
      </trkpt>
      <trkpt lat="48.40479" lon="2.66234">
        <ele>106.36</ele>
        <time>2018-01-27T08:34:24Z</time>
      </trkpt>
      <trkpt lat="48.40467" lon="2.66234">
        <ele>105.4</ele>
        <time>2018-01-27T08:34:38Z</time>
      </trkpt>
      <trkpt lat="48.4046" lon="2.66244">
        <ele>105.88</ele>
        <time>2018-01-27T08:34:53Z</time>
      </trkpt>
      <trkpt lat="48.40455" lon="2.66249">
        <ele>105.88</ele>
        <time>2018-01-27T08:35:05Z</time>
      </trkpt>
      <trkpt lat="48.40445" lon="2.66253">
        <ele>105.88</ele>
        <time>2018-01-27T08:35:18Z</time>
      </trkpt>
      <trkpt lat="48.40443" lon="2.66264">
        <ele>106.36</ele>
        <time>2018-01-27T08:35:33Z</time>
      </trkpt>
      <trkpt lat="48.40445" lon="2.66267">
        <ele>106.36</ele>
        <time>2018-01-27T08:36:03Z</time>
      </trkpt>
      <trkpt lat="48.40444" lon="2.66266">
        <ele>106.36</ele>
        <time>2018-01-27T08:36:26Z</time>
      </trkpt>
      <trkpt lat="48.40441" lon="2.66273">
        <ele>109.25</ele>
        <time>2018-01-27T08:36:47Z</time>
      </trkpt>
      <trkpt lat="48.40437" lon="2.66288">
        <ele>110.69</ele>
        <time>2018-01-27T08:37:03Z</time>
      </trkpt>
      <trkpt lat="48.40436" lon="2.663">
        <ele>112.13</ele>
        <time>2018-01-27T08:37:24Z</time>
      </trkpt>
      <trkpt lat="48.40436" lon="2.66308">
        <ele>113.57</ele>
        <time>2018-01-27T08:37:37Z</time>
      </trkpt>
      <trkpt lat="48.40439" lon="2.66318">
        <ele>115.5</ele>
        <time>2018-01-27T08:37:53Z</time>
      </trkpt>
      <trkpt lat="48.40441" lon="2.66328">
        <ele>117.9</ele>
        <time>2018-01-27T08:38:09Z</time>
      </trkpt>
      <trkpt lat="48.40443" lon="2.66336">
        <ele>119.82</ele>
        <time>2018-01-27T08:38:25Z</time>
      </trkpt>
      <trkpt lat="48.40443" lon="2.66352">
        <ele>120.3</ele>
        <time>2018-01-27T08:38:39Z</time>
      </trkpt>
      <trkpt lat="48.40444" lon="2.66361">
        <ele>121.26</ele>
        <time>2018-01-27T08:38:52Z</time>
      </trkpt>
      <trkpt lat="48.40444" lon="2.66368">
        <ele>123.19</ele>
        <time>2018-01-27T08:39:04Z</time>
      </trkpt>
      <trkpt lat="48.40444" lon="2.66373">
        <ele>123.67</ele>
        <time>2018-01-27T08:39:22Z</time>
      </trkpt>
      <trkpt lat="48.40445" lon="2.66378">
        <ele>123.67</ele>
        <time>2018-01-27T08:39:37Z</time>
      </trkpt>
      <trkpt lat="48.40446" lon="2.66381">
        <ele>123.19</ele>
        <time>2018-01-27T08:40:00Z</time>
      </trkpt>
      <trkpt lat="48.40446" lon="2.6638">
        <ele>124.15</ele>
        <time>2018-01-27T08:40:15Z</time>
      </trkpt>
      <trkpt lat="48.4045" lon="2.66377">
        <ele>123.67</ele>
        <time>2018-01-27T08:40:42Z</time>
      </trkpt>
      <trkpt lat="48.40452" lon="2.66376">
        <ele>124.15</ele>
        <time>2018-01-27T08:40:56Z</time>
      </trkpt>
      <trkpt lat="48.4045" lon="2.6638">
        <ele>125.11</ele>
        <time>2018-01-27T08:41:12Z</time>
      </trkpt>
      <trkpt lat="48.40453" lon="2.66384">
        <ele>125.11</ele>
        <time>2018-01-27T08:41:22Z</time>
      </trkpt>
      <trkpt lat="48.40461" lon="2.66383">
        <ele>126.55</ele>
        <time>2018-01-27T08:41:35Z</time>
      </trkpt>
      <trkpt lat="48.40463" lon="2.66382">
        <ele>127.51</ele>
        <time>2018-01-27T08:41:52Z</time>
      </trkpt>
      <trkpt lat="48.40466" lon="2.66384">
        <ele>127.51</ele>
        <time>2018-01-27T08:42:11Z</time>
      </trkpt>
      <trkpt lat="48.40464" lon="2.66382">
        <ele>127.51</ele>
        <time>2018-01-27T08:42:31Z</time>
      </trkpt>
      <trkpt lat="48.40466" lon="2.66381">
        <ele>127.99</ele>
        <time>2018-01-27T08:42:50Z</time>
      </trkpt>
      <trkpt lat="48.40465" lon="2.66385">
        <ele>127.99</ele>
        <time>2018-01-27T08:43:18Z</time>
      </trkpt>
      <trkpt lat="48.40464" lon="2.66381">
        <ele>127.51</ele>
        <time>2018-01-27T08:43:37Z</time>
      </trkpt>
      <trkpt lat="48.40464" lon="2.66371">
        <ele>126.07</ele>
        <time>2018-01-27T08:43:52Z</time>
      </trkpt>
      <trkpt lat="48.40464" lon="2.66372">
        <ele>126.07</ele>
        <time>2018-01-27T08:44:10Z</time>
      </trkpt>
      <trkpt lat="48.40465" lon="2.66371">
        <ele>125.59</ele>
        <time>2018-01-27T08:44:30Z</time>
      </trkpt>
      <trkpt lat="48.40467" lon="2.66369">
        <ele>126.07</ele>
        <time>2018-01-27T08:44:49Z</time>
      </trkpt>
      <trkpt lat="48.40477" lon="2.66366">
        <ele>126.07</ele>
        <time>2018-01-27T08:45:02Z</time>
      </trkpt>
      <trkpt lat="48.40479" lon="2.66364">
        <ele>126.07</ele>
        <time>2018-01-27T08:45:17Z</time>
      </trkpt>
      <trkpt lat="48.40481" lon="2.66358">
        <ele>125.11</ele>
        <time>2018-01-27T08:45:32Z</time>
      </trkpt>
      <trkpt lat="48.40482" lon="2.66358">
        <ele>125.11</ele>
        <time>2018-01-27T08:45:52Z</time>
      </trkpt>
      <trkpt lat="48.40481" lon="2.66361">
        <ele>125.11</ele>
        <time>2018-01-27T08:46:09Z</time>
      </trkpt>
      <trkpt lat="48.40484" lon="2.66355">
        <ele>124.15</ele>
        <time>2018-01-27T08:46:29Z</time>
      </trkpt>
      <trkpt lat="48.40488" lon="2.66349">
        <ele>124.15</ele>
        <time>2018-01-27T08:46:36Z</time>
      </trkpt>
      <trkpt lat="48.4049" lon="2.66332">
        <ele>124.15</ele>
        <time>2018-01-27T08:46:49Z</time>
      </trkpt>
      <trkpt lat="48.40488" lon="2.66321">
        <ele>124.63</ele>
        <time>2018-01-27T08:47:02Z</time>
      </trkpt>
      <trkpt lat="48.40488" lon="2.66323">
        <ele>124.15</ele>
        <time>2018-01-27T08:47:22Z</time>
      </trkpt>
      <trkpt lat="48.40489" lon="2.66324">
        <ele>124.63</ele>
        <time>2018-01-27T08:47:48Z</time>
      </trkpt>
      <trkpt lat="48.40484" lon="2.66332">
        <ele>125.11</ele>
        <time>2018-01-27T08:48:17Z</time>
      </trkpt>
      <trkpt lat="48.4048" lon="2.66325">
        <ele>124.15</ele>
        <time>2018-01-27T08:48:29Z</time>
      </trkpt>
      <trkpt lat="48.40479" lon="2.66314">
        <ele>124.15</ele>
        <time>2018-01-27T08:48:36Z</time>
      </trkpt>
      <trkpt lat="48.40476" lon="2.66304">
        <ele>124.15</ele>
        <time>2018-01-27T08:48:46Z</time>
      </trkpt>
      <trkpt lat="48.40474" lon="2.66296">
        <ele>124.63</ele>
        <time>2018-01-27T08:48:58Z</time>
      </trkpt>
      <trkpt lat="48.40475" lon="2.66285">
        <ele>123.19</ele>
        <time>2018-01-27T08:49:12Z</time>
      </trkpt>
      <trkpt lat="48.40474" lon="2.66276">
        <ele>123.19</ele>
        <time>2018-01-27T08:49:25Z</time>
      </trkpt>
      <trkpt lat="48.40476" lon="2.66276">
        <ele>121.74</ele>
        <time>2018-01-27T08:49:47Z</time>
      </trkpt>
      <trkpt lat="48.4048" lon="2.66274">
        <ele>121.26</ele>
        <time>2018-01-27T08:50:02Z</time>
      </trkpt>
      <trkpt lat="48.40489" lon="2.66272">
        <ele>118.86</ele>
        <time>2018-01-27T08:50:16Z</time>
      </trkpt>
      <trkpt lat="48.40493" lon="2.66275">
        <ele>118.86</ele>
        <time>2018-01-27T08:50:26Z</time>
      </trkpt>
      <trkpt lat="48.40497" lon="2.66281">
        <ele>118.86</ele>
        <time>2018-01-27T08:50:40Z</time>
      </trkpt>
      <trkpt lat="48.40502" lon="2.66284">
        <ele>117.42</ele>
        <time>2018-01-27T08:50:53Z</time>
      </trkpt>
      <trkpt lat="48.40508" lon="2.66295">
        <ele>115.98</ele>
        <time>2018-01-27T08:51:12Z</time>
      </trkpt>
      <trkpt lat="48.40513" lon="2.66304">
        <ele>115.5</ele>
        <time>2018-01-27T08:51:26Z</time>
      </trkpt>
      <trkpt lat="48.40515" lon="2.66315">
        <ele>113.09</ele>
        <time>2018-01-27T08:51:40Z</time>
      </trkpt>
      <trkpt lat="48.40514" lon="2.66333">
        <ele>113.09</ele>
        <time>2018-01-27T08:51:56Z</time>
      </trkpt>
      <trkpt lat="48.40512" lon="2.66348">
        <ele>113.57</ele>
        <time>2018-01-27T08:52:08Z</time>
      </trkpt>
      <trkpt lat="48.4051" lon="2.66363">
        <ele>113.57</ele>
        <time>2018-01-27T08:52:21Z</time>
      </trkpt>
      <trkpt lat="48.40502" lon="2.66381">
        <ele>112.13</ele>
        <time>2018-01-27T08:52:36Z</time>
      </trkpt>
      <trkpt lat="48.40493" lon="2.66407">
        <ele>109.73</ele>
        <time>2018-01-27T08:52:54Z</time>
      </trkpt>
      <trkpt lat="48.40486" lon="2.66422">
        <ele>108.29</ele>
        <time>2018-01-27T08:53:12Z</time>
      </trkpt>
      <trkpt lat="48.40474" lon="2.66429">
        <ele>106.84</ele>
        <time>2018-01-27T08:53:31Z</time>
      </trkpt>
      <trkpt lat="48.40462" lon="2.66431">
        <ele>107.32</ele>
        <time>2018-01-27T08:53:48Z</time>
      </trkpt>
      <trkpt lat="48.40456" lon="2.66434">
        <ele>106.84</ele>
        <time>2018-01-27T08:54:02Z</time>
      </trkpt>
      <trkpt lat="48.40445" lon="2.6644">
        <ele>104.92</ele>
        <time>2018-01-27T08:54:18Z</time>
      </trkpt>
      <trkpt lat="48.40437" lon="2.66434">
        <ele>105.4</ele>
        <time>2018-01-27T08:54:37Z</time>
      </trkpt>
      <trkpt lat="48.40427" lon="2.66431">
        <ele>104.44</ele>
        <time>2018-01-27T08:54:49Z</time>
      </trkpt>
      <trkpt lat="48.40415" lon="2.66425">
        <ele>102.52</ele>
        <time>2018-01-27T08:55:03Z</time>
      </trkpt>
      <trkpt lat="48.40406" lon="2.66417">
        <ele>101.56</ele>
        <time>2018-01-27T08:55:15Z</time>
      </trkpt>
      <trkpt lat="48.40398" lon="2.66412">
        <ele>100.11</ele>
        <time>2018-01-27T08:55:30Z</time>
      </trkpt>
      <trkpt lat="48.40388" lon="2.6641">
        <ele>98.67</ele>
        <time>2018-01-27T08:55:45Z</time>
      </trkpt>
      <trkpt lat="48.40377" lon="2.66405">
        <ele>98.19</ele>
        <time>2018-01-27T08:55:58Z</time>
      </trkpt>
      <trkpt lat="48.40376" lon="2.66404">
        <ele>98.19</ele>
        <time>2018-01-27T08:55:59Z</time>
      </trkpt>
      <trkpt lat="48.40364" lon="2.66394">
        <ele>98.19</ele>
        <time>2018-01-27T08:56:12Z</time>
      </trkpt>
      <trkpt lat="48.40357" lon="2.66386">
        <ele>98.67</ele>
        <time>2018-01-27T08:56:27Z</time>
      </trkpt>
      <trkpt lat="48.40343" lon="2.66381">
        <ele>99.15</ele>
        <time>2018-01-27T08:56:40Z</time>
      </trkpt>
      <trkpt lat="48.40334" lon="2.66385">
        <ele>98.67</ele>
        <time>2018-01-27T08:56:57Z</time>
      </trkpt>
      <trkpt lat="48.40333" lon="2.66386">
        <ele>98.67</ele>
        <time>2018-01-27T08:56:58Z</time>
      </trkpt>
      <trkpt lat="48.4032" lon="2.66395">
        <ele>99.15</ele>
        <time>2018-01-27T08:57:09Z</time>
      </trkpt>
      <trkpt lat="48.40306" lon="2.66402">
        <ele>101.08</ele>
        <time>2018-01-27T08:57:22Z</time>
      </trkpt>
      <trkpt lat="48.40297" lon="2.66401">
        <ele>103</ele>
        <time>2018-01-27T08:57:34Z</time>
      </trkpt>
      <trkpt lat="48.40287" lon="2.66406">
        <ele>104.92</ele>
        <time>2018-01-27T08:57:48Z</time>
      </trkpt>
      <trkpt lat="48.40286" lon="2.66407">
        <ele>105.4</ele>
        <time>2018-01-27T08:58:02Z</time>
      </trkpt>
      <trkpt lat="48.40278" lon="2.66415">
        <ele>105.88</ele>
        <time>2018-01-27T08:58:16Z</time>
      </trkpt>
      <trkpt lat="48.4027" lon="2.6642">
        <ele>105.88</ele>
        <time>2018-01-27T08:58:28Z</time>
      </trkpt>
      <trkpt lat="48.40263" lon="2.66425">
        <ele>106.84</ele>
        <time>2018-01-27T08:58:41Z</time>
      </trkpt>
      <trkpt lat="48.40259" lon="2.66427">
        <ele>106.84</ele>
        <time>2018-01-27T08:58:44Z</time>
      </trkpt>
      <trkpt lat="48.40255" lon="2.66432">
        <ele>107.32</ele>
        <time>2018-01-27T08:58:49Z</time>
      </trkpt>
      <trkpt lat="48.40249" lon="2.66443">
        <ele>104.44</ele>
        <time>2018-01-27T08:59:02Z</time>
      </trkpt>
      <trkpt lat="48.40248" lon="2.66446">
        <ele>108.29</ele>
        <time>2018-01-27T08:59:04Z</time>
      </trkpt>
      <trkpt lat="48.40248" lon="2.66448">
        <ele>108.29</ele>
        <time>2018-01-27T08:59:05Z</time>
      </trkpt>
      <trkpt lat="48.40248" lon="2.66457">
        <ele>108.77</ele>
        <time>2018-01-27T08:59:15Z</time>
      </trkpt>
      <trkpt lat="48.40246" lon="2.66463">
        <ele>108.77</ele>
        <time>2018-01-27T08:59:22Z</time>
      </trkpt>
      <trkpt lat="48.40243" lon="2.66469">
        <ele>108.29</ele>
        <time>2018-01-27T08:59:26Z</time>
      </trkpt>
      <trkpt lat="48.4024" lon="2.66474">
        <ele>108.77</ele>
        <time>2018-01-27T08:59:30Z</time>
      </trkpt>
      <trkpt lat="48.40238" lon="2.66477">
        <ele>109.73</ele>
        <time>2018-01-27T08:59:39Z</time>
      </trkpt>
      <trkpt lat="48.40238" lon="2.66483">
        <ele>110.21</ele>
        <time>2018-01-27T08:59:53Z</time>
      </trkpt>
      <trkpt lat="48.40235" lon="2.66488">
        <ele>109.73</ele>
        <time>2018-01-27T09:00:01Z</time>
      </trkpt>
      <trkpt lat="48.40233" lon="2.66497">
        <ele>108.29</ele>
        <time>2018-01-27T09:00:13Z</time>
      </trkpt>
      <trkpt lat="48.40232" lon="2.66498">
        <ele>107.81</ele>
        <time>2018-01-27T09:00:26Z</time>
      </trkpt>
      <trkpt lat="48.40232" lon="2.66498">
        <ele>107.81</ele>
        <time>2018-01-27T09:00:28Z</time>
      </trkpt>
      <trkpt lat="48.40235" lon="2.66498">
        <ele>108.29</ele>
        <time>2018-01-27T09:00:45Z</time>
      </trkpt>
      <trkpt lat="48.40234" lon="2.66494">
        <ele>108.29</ele>
        <time>2018-01-27T09:01:15Z</time>
      </trkpt>
      <trkpt lat="48.40227" lon="2.66495">
        <ele>105.4</ele>
        <time>2018-01-27T09:01:34Z</time>
      </trkpt>
      <trkpt lat="48.40227" lon="2.66494">
        <ele>105.4</ele>
        <time>2018-01-27T09:01:35Z</time>
      </trkpt>
      <trkpt lat="48.4022" lon="2.66488">
        <ele>105.4</ele>
        <time>2018-01-27T09:01:40Z</time>
      </trkpt>
      <trkpt lat="48.40217" lon="2.66481">
        <ele>104.44</ele>
        <time>2018-01-27T09:01:44Z</time>
      </trkpt>
      <trkpt lat="48.40205" lon="2.66481">
        <ele>104.92</ele>
        <time>2018-01-27T09:01:57Z</time>
      </trkpt>
      <trkpt lat="48.40201" lon="2.66498">
        <ele>103.96</ele>
        <time>2018-01-27T09:02:10Z</time>
      </trkpt>
      <trkpt lat="48.40201" lon="2.66504">
        <ele>104.44</ele>
        <time>2018-01-27T09:02:26Z</time>
      </trkpt>
      <trkpt lat="48.40202" lon="2.66509">
        <ele>103.96</ele>
        <time>2018-01-27T09:02:36Z</time>
      </trkpt>
      <trkpt lat="48.40202" lon="2.66509">
        <ele>103.96</ele>
        <time>2018-01-27T09:02:38Z</time>
      </trkpt>
      <trkpt lat="48.40204" lon="2.6652">
        <ele>104.44</ele>
        <time>2018-01-27T09:02:50Z</time>
      </trkpt>
      <trkpt lat="48.40204" lon="2.6652">
        <ele>103.96</ele>
        <time>2018-01-27T09:03:04Z</time>
      </trkpt>
      <trkpt lat="48.40208" lon="2.66521">
        <ele>103.96</ele>
        <time>2018-01-27T09:03:08Z</time>
      </trkpt>
      <trkpt lat="48.40213" lon="2.66527">
        <ele>104.92</ele>
        <time>2018-01-27T09:03:19Z</time>
      </trkpt>
      <trkpt lat="48.40213" lon="2.66532">
        <ele>104.44</ele>
        <time>2018-01-27T09:03:31Z</time>
      </trkpt>
      <trkpt lat="48.40207" lon="2.66532">
        <ele>103.96</ele>
        <time>2018-01-27T09:03:49Z</time>
      </trkpt>
      <trkpt lat="48.40202" lon="2.6653">
        <ele>103</ele>
        <time>2018-01-27T09:04:02Z</time>
      </trkpt>
      <trkpt lat="48.40201" lon="2.66528">
        <ele>102.52</ele>
        <time>2018-01-27T09:04:14Z</time>
      </trkpt>
      <trkpt lat="48.40199" lon="2.66528">
        <ele>102.52</ele>
        <time>2018-01-27T09:04:34Z</time>
      </trkpt>
      <trkpt lat="48.402" lon="2.66531">
        <ele>102.52</ele>
        <time>2018-01-27T09:04:47Z</time>
      </trkpt>
      <trkpt lat="48.40201" lon="2.66528">
        <ele>102.04</ele>
        <time>2018-01-27T09:05:04Z</time>
      </trkpt>
      <trkpt lat="48.40198" lon="2.66514">
        <ele>100.11</ele>
        <time>2018-01-27T09:05:21Z</time>
      </trkpt>
      <trkpt lat="48.40197" lon="2.66502">
        <ele>99.15</ele>
        <time>2018-01-27T09:05:38Z</time>
      </trkpt>
      <trkpt lat="48.40194" lon="2.66493">
        <ele>97.71</ele>
        <time>2018-01-27T09:05:52Z</time>
      </trkpt>
      <trkpt lat="48.40192" lon="2.66488">
        <ele>96.75</ele>
        <time>2018-01-27T09:06:01Z</time>
      </trkpt>
      <trkpt lat="48.4019" lon="2.66481">
        <ele>96.27</ele>
        <time>2018-01-27T09:06:10Z</time>
      </trkpt>
      <trkpt lat="48.40187" lon="2.66475">
        <ele>96.75</ele>
        <time>2018-01-27T09:06:15Z</time>
      </trkpt>
      <trkpt lat="48.40185" lon="2.66465">
        <ele>96.27</ele>
        <time>2018-01-27T09:06:22Z</time>
      </trkpt>
      <trkpt lat="48.40181" lon="2.66447">
        <ele>96.75</ele>
        <time>2018-01-27T09:06:35Z</time>
      </trkpt>
      <trkpt lat="48.4018" lon="2.66445">
        <ele>97.23</ele>
        <time>2018-01-27T09:06:47Z</time>
      </trkpt>
      <trkpt lat="48.40181" lon="2.6644">
        <ele>97.23</ele>
        <time>2018-01-27T09:07:07Z</time>
      </trkpt>
      <trkpt lat="48.40183" lon="2.66434">
        <ele>97.71</ele>
        <time>2018-01-27T09:07:13Z</time>
      </trkpt>
      <trkpt lat="48.40177" lon="2.66425">
        <ele>97.23</ele>
        <time>2018-01-27T09:07:25Z</time>
      </trkpt>
      <trkpt lat="48.40177" lon="2.66424">
        <ele>97.23</ele>
        <time>2018-01-27T09:07:26Z</time>
      </trkpt>
      <trkpt lat="48.40173" lon="2.6642">
        <ele>97.23</ele>
        <time>2018-01-27T09:07:39Z</time>
      </trkpt>
      <trkpt lat="48.40171" lon="2.66414">
        <ele>95.79</ele>
        <time>2018-01-27T09:07:45Z</time>
      </trkpt>
      <trkpt lat="48.40166" lon="2.66408">
        <ele>95.31</ele>
        <time>2018-01-27T09:07:56Z</time>
      </trkpt>
      <trkpt lat="48.40162" lon="2.66403">
        <ele>94.83</ele>
        <time>2018-01-27T09:08:10Z</time>
      </trkpt>
      <trkpt lat="48.40163" lon="2.66402">
        <ele>94.83</ele>
        <time>2018-01-27T09:08:17Z</time>
      </trkpt>
      <trkpt lat="48.40165" lon="2.66396">
        <ele>94.35</ele>
        <time>2018-01-27T09:08:28Z</time>
      </trkpt>
      <trkpt lat="48.40168" lon="2.66391">
        <ele>93.87</ele>
        <time>2018-01-27T09:08:35Z</time>
      </trkpt>
      <trkpt lat="48.40169" lon="2.66378">
        <ele>93.39</ele>
        <time>2018-01-27T09:08:46Z</time>
      </trkpt>
      <trkpt lat="48.40173" lon="2.66367">
        <ele>94.35</ele>
        <time>2018-01-27T09:08:57Z</time>
      </trkpt>
      <trkpt lat="48.40178" lon="2.66353">
        <ele>93.39</ele>
        <time>2018-01-27T09:09:06Z</time>
      </trkpt>
      <trkpt lat="48.40185" lon="2.66344">
        <ele>93.87</ele>
        <time>2018-01-27T09:09:17Z</time>
      </trkpt>
      <trkpt lat="48.40187" lon="2.6634">
        <ele>93.39</ele>
        <time>2018-01-27T09:09:24Z</time>
      </trkpt>
      <trkpt lat="48.4019" lon="2.66333">
        <ele>91.94</ele>
        <time>2018-01-27T09:09:33Z</time>
      </trkpt>
      <trkpt lat="48.40191" lon="2.66325">
        <ele>91.46</ele>
        <time>2018-01-27T09:09:44Z</time>
      </trkpt>
      <trkpt lat="48.40192" lon="2.66325">
        <ele>91.46</ele>
        <time>2018-01-27T09:09:58Z</time>
      </trkpt>
      <trkpt lat="48.40196" lon="2.66318">
        <ele>91.46</ele>
        <time>2018-01-27T09:10:10Z</time>
      </trkpt>
      <trkpt lat="48.402" lon="2.6631">
        <ele>90.98</ele>
        <time>2018-01-27T09:10:21Z</time>
      </trkpt>
      <trkpt lat="48.40204" lon="2.66301">
        <ele>91.46</ele>
        <time>2018-01-27T09:10:36Z</time>
      </trkpt>
      <trkpt lat="48.40202" lon="2.66294">
        <ele>91.94</ele>
        <time>2018-01-27T09:10:49Z</time>
      </trkpt>
      <trkpt lat="48.40203" lon="2.66293">
        <ele>91.94</ele>
        <time>2018-01-27T09:11:04Z</time>
      </trkpt>
      <trkpt lat="48.40203" lon="2.6629">
        <ele>91.46</ele>
        <time>2018-01-27T09:11:13Z</time>
      </trkpt>
      <trkpt lat="48.40204" lon="2.66289">
        <ele>90.98</ele>
        <time>2018-01-27T09:11:16Z</time>
      </trkpt>
      <trkpt lat="48.40207" lon="2.6628">
        <ele>90.5</ele>
        <time>2018-01-27T09:11:25Z</time>
      </trkpt>
      <trkpt lat="48.4021" lon="2.66275">
        <ele>90.5</ele>
        <time>2018-01-27T09:11:36Z</time>
      </trkpt>
      <trkpt lat="48.4021" lon="2.66279">
        <ele>90.98</ele>
        <time>2018-01-27T09:11:51Z</time>
      </trkpt>
      <trkpt lat="48.40206" lon="2.66287">
        <ele>90.98</ele>
        <time>2018-01-27T09:12:08Z</time>
      </trkpt>
      <trkpt lat="48.40206" lon="2.66289">
        <ele>92.9</ele>
        <time>2018-01-27T09:12:22Z</time>
      </trkpt>
      <trkpt lat="48.40207" lon="2.66289">
        <ele>92.9</ele>
        <time>2018-01-27T09:12:36Z</time>
      </trkpt>
      <trkpt lat="48.40203" lon="2.66291">
        <ele>91.94</ele>
        <time>2018-01-27T09:12:43Z</time>
      </trkpt>
      <trkpt lat="48.40202" lon="2.66292">
        <ele>91.94</ele>
        <time>2018-01-27T09:12:57Z</time>
      </trkpt>
      <trkpt lat="48.40195" lon="2.66293">
        <ele>90.98</ele>
        <time>2018-01-27T09:13:10Z</time>
      </trkpt>
      <trkpt lat="48.40196" lon="2.66297">
        <ele>90.98</ele>
        <time>2018-01-27T09:13:27Z</time>
      </trkpt>
      <trkpt lat="48.40193" lon="2.66296">
        <ele>91.46</ele>
        <time>2018-01-27T09:13:39Z</time>
      </trkpt>
      <trkpt lat="48.40195" lon="2.66297">
        <ele>90.98</ele>
        <time>2018-01-27T09:13:46Z</time>
      </trkpt>
      <trkpt lat="48.40199" lon="2.663">
        <ele>91.94</ele>
        <time>2018-01-27T09:14:00Z</time>
      </trkpt>
      <trkpt lat="48.40201" lon="2.66303">
        <ele>92.42</ele>
        <time>2018-01-27T09:14:13Z</time>
      </trkpt>
      <trkpt lat="48.40204" lon="2.66297">
        <ele>92.42</ele>
        <time>2018-01-27T09:14:26Z</time>
      </trkpt>
      <trkpt lat="48.40199" lon="2.66294">
        <ele>90.98</ele>
        <time>2018-01-27T09:14:37Z</time>
      </trkpt>
      <trkpt lat="48.40192" lon="2.66293">
        <ele>90.98</ele>
        <time>2018-01-27T09:14:49Z</time>
      </trkpt>
      <trkpt lat="48.40188" lon="2.66294">
        <ele>91.46</ele>
        <time>2018-01-27T09:14:53Z</time>
      </trkpt>
      <trkpt lat="48.40183" lon="2.66294">
        <ele>90.02</ele>
        <time>2018-01-27T09:15:04Z</time>
      </trkpt>
      <trkpt lat="48.40174" lon="2.66302">
        <ele>90.02</ele>
        <time>2018-01-27T09:15:17Z</time>
      </trkpt>
      <trkpt lat="48.40166" lon="2.66303">
        <ele>89.54</ele>
        <time>2018-01-27T09:15:29Z</time>
      </trkpt>
      <trkpt lat="48.40164" lon="2.66304">
        <ele>89.54</ele>
        <time>2018-01-27T09:15:34Z</time>
      </trkpt>
      <trkpt lat="48.40159" lon="2.66307">
        <ele>89.06</ele>
        <time>2018-01-27T09:15:40Z</time>
      </trkpt>
      <trkpt lat="48.40144" lon="2.66306">
        <ele>88.1</ele>
        <time>2018-01-27T09:15:51Z</time>
      </trkpt>
      <trkpt lat="48.40133" lon="2.66308">
        <ele>87.14</ele>
        <time>2018-01-27T09:16:04Z</time>
      </trkpt>
      <trkpt lat="48.40124" lon="2.66311">
        <ele>87.14</ele>
        <time>2018-01-27T09:16:14Z</time>
      </trkpt>
      <trkpt lat="48.40117" lon="2.66316">
        <ele>86.66</ele>
        <time>2018-01-27T09:16:26Z</time>
      </trkpt>
      <trkpt lat="48.40118" lon="2.66319">
        <ele>86.66</ele>
        <time>2018-01-27T09:16:43Z</time>
      </trkpt>
      <trkpt lat="48.40116" lon="2.66319">
        <ele>87.14</ele>
        <time>2018-01-27T09:17:01Z</time>
      </trkpt>
      <trkpt lat="48.40116" lon="2.66323">
        <ele>87.14</ele>
        <time>2018-01-27T09:17:18Z</time>
      </trkpt>
      <trkpt lat="48.40116" lon="2.66321">
        <ele>87.14</ele>
        <time>2018-01-27T09:17:33Z</time>
      </trkpt>
      <trkpt lat="48.40117" lon="2.66322">
        <ele>87.14</ele>
        <time>2018-01-27T09:17:54Z</time>
      </trkpt>
      <trkpt lat="48.40119" lon="2.6632">
        <ele>87.62</ele>
        <time>2018-01-27T09:18:06Z</time>
      </trkpt>
      <trkpt lat="48.4012" lon="2.66326">
        <ele>87.62</ele>
        <time>2018-01-27T09:18:18Z</time>
      </trkpt>
      <trkpt lat="48.40121" lon="2.66331">
        <ele>87.14</ele>
        <time>2018-01-27T09:18:23Z</time>
      </trkpt>
      <trkpt lat="48.40123" lon="2.66338">
        <ele>87.14</ele>
        <time>2018-01-27T09:18:35Z</time>
      </trkpt>
      <trkpt lat="48.40124" lon="2.66334">
        <ele>87.14</ele>
        <time>2018-01-27T09:18:42Z</time>
      </trkpt>
      <trkpt lat="48.40117" lon="2.66328">
        <ele>87.14</ele>
        <time>2018-01-27T09:18:53Z</time>
      </trkpt>
      <trkpt lat="48.40107" lon="2.66326">
        <ele>87.14</ele>
        <time>2018-01-27T09:19:05Z</time>
      </trkpt>
      <trkpt lat="48.401" lon="2.66325">
        <ele>86.18</ele>
        <time>2018-01-27T09:19:19Z</time>
      </trkpt>
      <trkpt lat="48.40099" lon="2.66322">
        <ele>86.66</ele>
        <time>2018-01-27T09:19:31Z</time>
      </trkpt>
      <trkpt lat="48.401" lon="2.6632">
        <ele>86.18</ele>
        <time>2018-01-27T09:19:35Z</time>
      </trkpt>
      <trkpt lat="48.40103" lon="2.6632">
        <ele>86.18</ele>
        <time>2018-01-27T09:19:45Z</time>
      </trkpt>
      <trkpt lat="48.40103" lon="2.66318">
        <ele>86.66</ele>
        <time>2018-01-27T09:20:01Z</time>
      </trkpt>
      <trkpt lat="48.40094" lon="2.66321">
        <ele>85.69</ele>
        <time>2018-01-27T09:20:13Z</time>
      </trkpt>
      <trkpt lat="48.40094" lon="2.66324">
        <ele>84.25</ele>
        <time>2018-01-27T09:20:22Z</time>
      </trkpt>
      <trkpt lat="48.40089" lon="2.6632">
        <ele>83.29</ele>
        <time>2018-01-27T09:20:33Z</time>
      </trkpt>
      <trkpt lat="48.40088" lon="2.6632">
        <ele>83.29</ele>
        <time>2018-01-27T09:20:34Z</time>
      </trkpt>
      <trkpt lat="48.40081" lon="2.66313">
        <ele>81.85</ele>
        <time>2018-01-27T09:20:45Z</time>
      </trkpt>
      <trkpt lat="48.4007" lon="2.66317">
        <ele>81.37</ele>
        <time>2018-01-27T09:20:58Z</time>
      </trkpt>
      <trkpt lat="48.4007" lon="2.66317">
        <ele>81.37</ele>
        <time>2018-01-27T09:20:59Z</time>
      </trkpt>
      <trkpt lat="48.40068" lon="2.66313">
        <ele>81.37</ele>
        <time>2018-01-27T09:21:03Z</time>
      </trkpt>
      <trkpt lat="48.40062" lon="2.66305">
        <ele>81.85</ele>
        <time>2018-01-27T09:21:12Z</time>
      </trkpt>
      <trkpt lat="48.40058" lon="2.66306">
        <ele>81.37</ele>
        <time>2018-01-27T09:21:22Z</time>
      </trkpt>
      <trkpt lat="48.40059" lon="2.66305">
        <ele>81.85</ele>
        <time>2018-01-27T09:21:37Z</time>
      </trkpt>
      <trkpt lat="48.40056" lon="2.66303">
        <ele>81.37</ele>
        <time>2018-01-27T09:21:52Z</time>
      </trkpt>
      <trkpt lat="48.40055" lon="2.66282">
        <ele>80.89</ele>
        <time>2018-01-27T09:22:04Z</time>
      </trkpt>
      <trkpt lat="48.40054" lon="2.66276">
        <ele>81.37</ele>
        <time>2018-01-27T09:22:11Z</time>
      </trkpt>
      <trkpt lat="48.40058" lon="2.66262">
        <ele>81.37</ele>
        <time>2018-01-27T09:22:19Z</time>
      </trkpt>
      <trkpt lat="48.40059" lon="2.66245">
        <ele>81.37</ele>
        <time>2018-01-27T09:22:30Z</time>
      </trkpt>
      <trkpt lat="48.40061" lon="2.66234">
        <ele>81.85</ele>
        <time>2018-01-27T09:22:37Z</time>
      </trkpt>
      <trkpt lat="48.40063" lon="2.6622">
        <ele>81.85</ele>
        <time>2018-01-27T09:22:49Z</time>
      </trkpt>
      <trkpt lat="48.40065" lon="2.66215">
        <ele>82.33</ele>
        <time>2018-01-27T09:22:53Z</time>
      </trkpt>
      <trkpt lat="48.40065" lon="2.66201">
        <ele>82.33</ele>
        <time>2018-01-27T09:23:06Z</time>
      </trkpt>
      <trkpt lat="48.40068" lon="2.66189">
        <ele>81.37</ele>
        <time>2018-01-27T09:23:16Z</time>
      </trkpt>
      <trkpt lat="48.40068" lon="2.66185">
        <ele>81.85</ele>
        <time>2018-01-27T09:23:19Z</time>
      </trkpt>
      <trkpt lat="48.4007" lon="2.66174">
        <ele>81.85</ele>
        <time>2018-01-27T09:23:26Z</time>
      </trkpt>
      <trkpt lat="48.40072" lon="2.66166">
        <ele>81.37</ele>
        <time>2018-01-27T09:23:34Z</time>
      </trkpt>
      <trkpt lat="48.40073" lon="2.6615">
        <ele>80.89</ele>
        <time>2018-01-27T09:23:45Z</time>
      </trkpt>
      <trkpt lat="48.40073" lon="2.66147">
        <ele>81.37</ele>
        <time>2018-01-27T09:23:46Z</time>
      </trkpt>
      <trkpt lat="48.4008" lon="2.66123">
        <ele>82.33</ele>
        <time>2018-01-27T09:23:58Z</time>
      </trkpt>
      <trkpt lat="48.40081" lon="2.6612">
        <ele>82.33</ele>
        <time>2018-01-27T09:24:00Z</time>
      </trkpt>
      <trkpt lat="48.40083" lon="2.66111">
        <ele>82.33</ele>
        <time>2018-01-27T09:24:05Z</time>
      </trkpt>
      <trkpt lat="48.40084" lon="2.661">
        <ele>82.33</ele>
        <time>2018-01-27T09:24:12Z</time>
      </trkpt>
      <trkpt lat="48.40092" lon="2.66079">
        <ele>82.81</ele>
        <time>2018-01-27T09:24:25Z</time>
      </trkpt>
      <trkpt lat="48.40097" lon="2.66053">
        <ele>83.29</ele>
        <time>2018-01-27T09:24:38Z</time>
      </trkpt>
      <trkpt lat="48.40098" lon="2.66049">
        <ele>83.29</ele>
        <time>2018-01-27T09:24:41Z</time>
      </trkpt>
      <trkpt lat="48.40099" lon="2.66046">
        <ele>83.29</ele>
        <time>2018-01-27T09:24:43Z</time>
      </trkpt>
      <trkpt lat="48.40101" lon="2.6604">
        <ele>83.29</ele>
        <time>2018-01-27T09:24:47Z</time>
      </trkpt>
      <trkpt lat="48.401" lon="2.66037">
        <ele>82.81</ele>
        <time>2018-01-27T09:24:49Z</time>
      </trkpt>
      <trkpt lat="48.40102" lon="2.66033">
        <ele>82.81</ele>
        <time>2018-01-27T09:24:53Z</time>
      </trkpt>
      <trkpt lat="48.40103" lon="2.66033">
        <ele>82.81</ele>
        <time>2018-01-27T09:24:54Z</time>
      </trkpt>
      <trkpt lat="48.40104" lon="2.66032">
        <ele>82.33</ele>
        <time>2018-01-27T09:24:56Z</time>
      </trkpt>
      <trkpt lat="48.40106" lon="2.66022">
        <ele>82.33</ele>
        <time>2018-01-27T09:25:02Z</time>
      </trkpt>
      <trkpt lat="48.40109" lon="2.66007">
        <ele>82.81</ele>
        <time>2018-01-27T09:25:14Z</time>
      </trkpt>
      <trkpt lat="48.40113" lon="2.6599">
        <ele>82.33</ele>
        <time>2018-01-27T09:25:25Z</time>
      </trkpt>
      <trkpt lat="48.4012" lon="2.65969">
        <ele>83.29</ele>
        <time>2018-01-27T09:25:38Z</time>
      </trkpt>
      <trkpt lat="48.4012" lon="2.65967">
        <ele>83.29</ele>
        <time>2018-01-27T09:25:40Z</time>
      </trkpt>
      <trkpt lat="48.40122" lon="2.65946">
        <ele>83.77</ele>
        <time>2018-01-27T09:25:51Z</time>
      </trkpt>
      <trkpt lat="48.40121" lon="2.65942">
        <ele>83.29</ele>
        <time>2018-01-27T09:25:54Z</time>
      </trkpt>
      <trkpt lat="48.4012" lon="2.65939">
        <ele>83.29</ele>
        <time>2018-01-27T09:25:55Z</time>
      </trkpt>
      <trkpt lat="48.4012" lon="2.65937">
        <ele>83.29</ele>
        <time>2018-01-27T09:25:56Z</time>
      </trkpt>
      <trkpt lat="48.4012" lon="2.65933">
        <ele>83.29</ele>
        <time>2018-01-27T09:26:00Z</time>
      </trkpt>
      <trkpt lat="48.4012" lon="2.65931">
        <ele>83.29</ele>
        <time>2018-01-27T09:26:01Z</time>
      </trkpt>
      <trkpt lat="48.4012" lon="2.65929">
        <ele>83.29</ele>
        <time>2018-01-27T09:26:02Z</time>
      </trkpt>
      <trkpt lat="48.4012" lon="2.65921">
        <ele>83.29</ele>
        <time>2018-01-27T09:26:07Z</time>
      </trkpt>
      <trkpt lat="48.4012" lon="2.6592">
        <ele>83.77</ele>
        <time>2018-01-27T09:26:08Z</time>
      </trkpt>
      <trkpt lat="48.4012" lon="2.65912">
        <ele>84.25</ele>
        <time>2018-01-27T09:26:16Z</time>
      </trkpt>
      <trkpt lat="48.40119" lon="2.65909">
        <ele>83.77</ele>
        <time>2018-01-27T09:26:18Z</time>
      </trkpt>
      <trkpt lat="48.40119" lon="2.65907">
        <ele>83.29</ele>
        <time>2018-01-27T09:26:19Z</time>
      </trkpt>
      <trkpt lat="48.40119" lon="2.65904">
        <ele>83.77</ele>
        <time>2018-01-27T09:26:20Z</time>
      </trkpt>
      <trkpt lat="48.4012" lon="2.65888">
        <ele>84.25</ele>
        <time>2018-01-27T09:26:31Z</time>
      </trkpt>
      <trkpt lat="48.40121" lon="2.65878">
        <ele>84.25</ele>
        <time>2018-01-27T09:26:37Z</time>
      </trkpt>
      <trkpt lat="48.40121" lon="2.65875">
        <ele>84.73</ele>
        <time>2018-01-27T09:26:38Z</time>
      </trkpt>
      <trkpt lat="48.40123" lon="2.65865">
        <ele>83.77</ele>
        <time>2018-01-27T09:26:43Z</time>
      </trkpt>
      <trkpt lat="48.40124" lon="2.65852">
        <ele>84.73</ele>
        <time>2018-01-27T09:26:50Z</time>
      </trkpt>
      <trkpt lat="48.40124" lon="2.65849">
        <ele>84.25</ele>
        <time>2018-01-27T09:26:51Z</time>
      </trkpt>
      <trkpt lat="48.40127" lon="2.65842">
        <ele>84.73</ele>
        <time>2018-01-27T09:27:01Z</time>
      </trkpt>
      <trkpt lat="48.40128" lon="2.65838">
        <ele>84.73</ele>
        <time>2018-01-27T09:27:05Z</time>
      </trkpt>
      <trkpt lat="48.40127" lon="2.65829">
        <ele>85.69</ele>
        <time>2018-01-27T09:27:15Z</time>
      </trkpt>
      <trkpt lat="48.40127" lon="2.65826">
        <ele>85.21</ele>
        <time>2018-01-27T09:27:21Z</time>
      </trkpt>
      <trkpt lat="48.40127" lon="2.65824">
        <ele>84.73</ele>
        <time>2018-01-27T09:27:22Z</time>
      </trkpt>
      <trkpt lat="48.40127" lon="2.65821">
        <ele>84.73</ele>
        <time>2018-01-27T09:27:23Z</time>
      </trkpt>
      <trkpt lat="48.40129" lon="2.65815">
        <ele>84.73</ele>
        <time>2018-01-27T09:27:27Z</time>
      </trkpt>
      <trkpt lat="48.40129" lon="2.65812">
        <ele>85.21</ele>
        <time>2018-01-27T09:27:28Z</time>
      </trkpt>
      <trkpt lat="48.40129" lon="2.6581">
        <ele>85.21</ele>
        <time>2018-01-27T09:27:29Z</time>
      </trkpt>
      <trkpt lat="48.4013" lon="2.65799">
        <ele>86.66</ele>
        <time>2018-01-27T09:27:39Z</time>
      </trkpt>
      <trkpt lat="48.40131" lon="2.65798">
        <ele>85.69</ele>
        <time>2018-01-27T09:27:40Z</time>
      </trkpt>
      <trkpt lat="48.40134" lon="2.65779">
        <ele>86.18</ele>
        <time>2018-01-27T09:27:52Z</time>
      </trkpt>
      <trkpt lat="48.40134" lon="2.65762">
        <ele>86.18</ele>
        <time>2018-01-27T09:28:02Z</time>
      </trkpt>
      <trkpt lat="48.40135" lon="2.6575">
        <ele>86.18</ele>
        <time>2018-01-27T09:28:10Z</time>
      </trkpt>
      <trkpt lat="48.40136" lon="2.65748">
        <ele>86.18</ele>
        <time>2018-01-27T09:28:11Z</time>
      </trkpt>
      <trkpt lat="48.4014" lon="2.65723">
        <ele>86.18</ele>
        <time>2018-01-27T09:28:24Z</time>
      </trkpt>
      <trkpt lat="48.40142" lon="2.65707">
        <ele>86.66</ele>
        <time>2018-01-27T09:28:35Z</time>
      </trkpt>
      <trkpt lat="48.40141" lon="2.65701">
        <ele>86.18</ele>
        <time>2018-01-27T09:28:37Z</time>
      </trkpt>
      <trkpt lat="48.40141" lon="2.65699">
        <ele>86.66</ele>
        <time>2018-01-27T09:28:38Z</time>
      </trkpt>
      <trkpt lat="48.40141" lon="2.65691">
        <ele>86.18</ele>
        <time>2018-01-27T09:28:43Z</time>
      </trkpt>
      <trkpt lat="48.40141" lon="2.65689">
        <ele>86.66</ele>
        <time>2018-01-27T09:28:44Z</time>
      </trkpt>
      <trkpt lat="48.40143" lon="2.65676">
        <ele>86.66</ele>
        <time>2018-01-27T09:28:50Z</time>
      </trkpt>
      <trkpt lat="48.40146" lon="2.65663">
        <ele>87.14</ele>
        <time>2018-01-27T09:28:59Z</time>
      </trkpt>
      <trkpt lat="48.40148" lon="2.65644">
        <ele>87.14</ele>
        <time>2018-01-27T09:29:09Z</time>
      </trkpt>
      <trkpt lat="48.40148" lon="2.65628">
        <ele>87.62</ele>
        <time>2018-01-27T09:29:18Z</time>
      </trkpt>
      <trkpt lat="48.40148" lon="2.6562">
        <ele>87.14</ele>
        <time>2018-01-27T09:29:24Z</time>
      </trkpt>
      <trkpt lat="48.40149" lon="2.65618">
        <ele>87.14</ele>
        <time>2018-01-27T09:29:25Z</time>
      </trkpt>
      <trkpt lat="48.40151" lon="2.65601">
        <ele>87.62</ele>
        <time>2018-01-27T09:29:35Z</time>
      </trkpt>
      <trkpt lat="48.40151" lon="2.65599">
        <ele>87.62</ele>
        <time>2018-01-27T09:29:36Z</time>
      </trkpt>
      <trkpt lat="48.40151" lon="2.65596">
        <ele>87.62</ele>
        <time>2018-01-27T09:29:37Z</time>
      </trkpt>
      <trkpt lat="48.40151" lon="2.65593">
        <ele>87.14</ele>
        <time>2018-01-27T09:29:38Z</time>
      </trkpt>
      <trkpt lat="48.40154" lon="2.65579">
        <ele>87.62</ele>
        <time>2018-01-27T09:29:47Z</time>
      </trkpt>
      <trkpt lat="48.40154" lon="2.65576">
        <ele>88.1</ele>
        <time>2018-01-27T09:29:49Z</time>
      </trkpt>
      <trkpt lat="48.40154" lon="2.65574">
        <ele>87.62</ele>
        <time>2018-01-27T09:29:50Z</time>
      </trkpt>
      <trkpt lat="48.40153" lon="2.65567">
        <ele>88.1</ele>
        <time>2018-01-27T09:29:55Z</time>
      </trkpt>
      <trkpt lat="48.40153" lon="2.65565">
        <ele>88.1</ele>
        <time>2018-01-27T09:29:56Z</time>
      </trkpt>
      <trkpt lat="48.40152" lon="2.65563">
        <ele>88.1</ele>
        <time>2018-01-27T09:29:57Z</time>
      </trkpt>
      <trkpt lat="48.40153" lon="2.65541">
        <ele>88.1</ele>
        <time>2018-01-27T09:30:08Z</time>
      </trkpt>
      <trkpt lat="48.40153" lon="2.65535">
        <ele>88.1</ele>
        <time>2018-01-27T09:30:13Z</time>
      </trkpt>
      <trkpt lat="48.40153" lon="2.65532">
        <ele>88.1</ele>
        <time>2018-01-27T09:30:14Z</time>
      </trkpt>
      <trkpt lat="48.40153" lon="2.6553">
        <ele>88.58</ele>
        <time>2018-01-27T09:30:15Z</time>
      </trkpt>
      <trkpt lat="48.40155" lon="2.65521">
        <ele>88.58</ele>
        <time>2018-01-27T09:30:21Z</time>
      </trkpt>
      <trkpt lat="48.40155" lon="2.65518">
        <ele>89.06</ele>
        <time>2018-01-27T09:30:22Z</time>
      </trkpt>
      <trkpt lat="48.40154" lon="2.65516">
        <ele>89.06</ele>
        <time>2018-01-27T09:30:25Z</time>
      </trkpt>
      <trkpt lat="48.40156" lon="2.65509">
        <ele>89.06</ele>
        <time>2018-01-27T09:30:36Z</time>
      </trkpt>
      <trkpt lat="48.40155" lon="2.65503">
        <ele>89.06</ele>
        <time>2018-01-27T09:30:39Z</time>
      </trkpt>
      <trkpt lat="48.40156" lon="2.655">
        <ele>89.06</ele>
        <time>2018-01-27T09:30:40Z</time>
      </trkpt>
      <trkpt lat="48.40157" lon="2.65495">
        <ele>89.06</ele>
        <time>2018-01-27T09:30:44Z</time>
      </trkpt>
      <trkpt lat="48.40157" lon="2.65493">
        <ele>89.06</ele>
        <time>2018-01-27T09:30:45Z</time>
      </trkpt>
      <trkpt lat="48.40158" lon="2.65487">
        <ele>89.54</ele>
        <time>2018-01-27T09:30:50Z</time>
      </trkpt>
      <trkpt lat="48.40158" lon="2.65479">
        <ele>89.06</ele>
        <time>2018-01-27T09:30:56Z</time>
      </trkpt>
      <trkpt lat="48.4016" lon="2.65466">
        <ele>89.54</ele>
        <time>2018-01-27T09:31:04Z</time>
      </trkpt>
      <trkpt lat="48.40162" lon="2.65454">
        <ele>89.54</ele>
        <time>2018-01-27T09:31:11Z</time>
      </trkpt>
      <trkpt lat="48.40162" lon="2.65452">
        <ele>89.54</ele>
        <time>2018-01-27T09:31:12Z</time>
      </trkpt>
      <trkpt lat="48.40163" lon="2.6545">
        <ele>89.54</ele>
        <time>2018-01-27T09:31:13Z</time>
      </trkpt>
      <trkpt lat="48.40163" lon="2.65444">
        <ele>89.54</ele>
        <time>2018-01-27T09:31:17Z</time>
      </trkpt>
      <trkpt lat="48.40164" lon="2.65434">
        <ele>90.02</ele>
        <time>2018-01-27T09:31:27Z</time>
      </trkpt>
      <trkpt lat="48.40165" lon="2.65432">
        <ele>90.02</ele>
        <time>2018-01-27T09:31:29Z</time>
      </trkpt>
      <trkpt lat="48.40168" lon="2.65425">
        <ele>90.5</ele>
        <time>2018-01-27T09:31:38Z</time>
      </trkpt>
      <trkpt lat="48.40175" lon="2.65414">
        <ele>90.98</ele>
        <time>2018-01-27T09:31:50Z</time>
      </trkpt>
      <trkpt lat="48.40177" lon="2.65407">
        <ele>91.46</ele>
        <time>2018-01-27T09:31:54Z</time>
      </trkpt>
      <trkpt lat="48.40178" lon="2.65404">
        <ele>90.98</ele>
        <time>2018-01-27T09:31:55Z</time>
      </trkpt>
      <trkpt lat="48.40179" lon="2.65402">
        <ele>91.46</ele>
        <time>2018-01-27T09:31:56Z</time>
      </trkpt>
      <trkpt lat="48.40184" lon="2.65393">
        <ele>91.94</ele>
        <time>2018-01-27T09:32:05Z</time>
      </trkpt>
      <trkpt lat="48.40187" lon="2.65381">
        <ele>93.39</ele>
        <time>2018-01-27T09:32:14Z</time>
      </trkpt>
      <trkpt lat="48.40189" lon="2.65374">
        <ele>93.87</ele>
        <time>2018-01-27T09:32:18Z</time>
      </trkpt>
      <trkpt lat="48.40193" lon="2.65363">
        <ele>95.31</ele>
        <time>2018-01-27T09:32:27Z</time>
      </trkpt>
      <trkpt lat="48.402" lon="2.65358">
        <ele>97.71</ele>
        <time>2018-01-27T09:32:38Z</time>
      </trkpt>
      <trkpt lat="48.40206" lon="2.65352">
        <ele>98.67</ele>
        <time>2018-01-27T09:32:46Z</time>
      </trkpt>
      <trkpt lat="48.40213" lon="2.65348">
        <ele>99.63</ele>
        <time>2018-01-27T09:32:57Z</time>
      </trkpt>
      <trkpt lat="48.40216" lon="2.65347">
        <ele>100.6</ele>
        <time>2018-01-27T09:33:12Z</time>
      </trkpt>
      <trkpt lat="48.40223" lon="2.65352">
        <ele>101.56</ele>
        <time>2018-01-27T09:33:24Z</time>
      </trkpt>
      <trkpt lat="48.40226" lon="2.65357">
        <ele>102.04</ele>
        <time>2018-01-27T09:33:35Z</time>
      </trkpt>
      <trkpt lat="48.4023" lon="2.65357">
        <ele>103</ele>
        <time>2018-01-27T09:33:47Z</time>
      </trkpt>
      <trkpt lat="48.40235" lon="2.65357">
        <ele>103</ele>
        <time>2018-01-27T09:33:53Z</time>
      </trkpt>
      <trkpt lat="48.4024" lon="2.65349">
        <ele>103.48</ele>
        <time>2018-01-27T09:34:06Z</time>
      </trkpt>
      <trkpt lat="48.40243" lon="2.65354">
        <ele>103</ele>
        <time>2018-01-27T09:34:19Z</time>
      </trkpt>
      <trkpt lat="48.40244" lon="2.65353">
        <ele>103.96</ele>
        <time>2018-01-27T09:34:30Z</time>
      </trkpt>
      <trkpt lat="48.40245" lon="2.65352">
        <ele>103.96</ele>
        <time>2018-01-27T09:34:34Z</time>
      </trkpt>
      <trkpt lat="48.40246" lon="2.65351">
        <ele>103.96</ele>
        <time>2018-01-27T09:34:35Z</time>
      </trkpt>
      <trkpt lat="48.40252" lon="2.65339">
        <ele>104.92</ele>
        <time>2018-01-27T09:34:47Z</time>
      </trkpt>
      <trkpt lat="48.40255" lon="2.65338">
        <ele>105.4</ele>
        <time>2018-01-27T09:34:50Z</time>
      </trkpt>
      <trkpt lat="48.40255" lon="2.65337">
        <ele>104.92</ele>
        <time>2018-01-27T09:34:51Z</time>
      </trkpt>
      <trkpt lat="48.40259" lon="2.65332">
        <ele>104.92</ele>
        <time>2018-01-27T09:34:57Z</time>
      </trkpt>
      <trkpt lat="48.40267" lon="2.65319">
        <ele>106.36</ele>
        <time>2018-01-27T09:35:09Z</time>
      </trkpt>
      <trkpt lat="48.40271" lon="2.6531">
        <ele>106.36</ele>
        <time>2018-01-27T09:35:20Z</time>
      </trkpt>
      <trkpt lat="48.40274" lon="2.65302">
        <ele>106.84</ele>
        <time>2018-01-27T09:35:30Z</time>
      </trkpt>
      <trkpt lat="48.40277" lon="2.65296">
        <ele>106.84</ele>
        <time>2018-01-27T09:35:39Z</time>
      </trkpt>
      <trkpt lat="48.40281" lon="2.65291">
        <ele>106.84</ele>
        <time>2018-01-27T09:35:46Z</time>
      </trkpt>
      <trkpt lat="48.40284" lon="2.65289">
        <ele>107.32</ele>
        <time>2018-01-27T09:35:49Z</time>
      </trkpt>
      <trkpt lat="48.40285" lon="2.65288">
        <ele>106.84</ele>
        <time>2018-01-27T09:35:50Z</time>
      </trkpt>
      <trkpt lat="48.40287" lon="2.65286">
        <ele>106.36</ele>
        <time>2018-01-27T09:35:59Z</time>
      </trkpt>
      <trkpt lat="48.40285" lon="2.65285">
        <ele>106.36</ele>
        <time>2018-01-27T09:36:13Z</time>
      </trkpt>
      <trkpt lat="48.40285" lon="2.65285">
        <ele>106.84</ele>
        <time>2018-01-27T09:36:27Z</time>
      </trkpt>
      <trkpt lat="48.40285" lon="2.65282">
        <ele>106.84</ele>
        <time>2018-01-27T09:36:46Z</time>
      </trkpt>
      <trkpt lat="48.40283" lon="2.65275">
        <ele>105.4</ele>
        <time>2018-01-27T09:36:56Z</time>
      </trkpt>
      <trkpt lat="48.40284" lon="2.65268">
        <ele>104.92</ele>
        <time>2018-01-27T09:37:02Z</time>
      </trkpt>
      <trkpt lat="48.40287" lon="2.65261">
        <ele>103.96</ele>
        <time>2018-01-27T09:37:12Z</time>
      </trkpt>
      <trkpt lat="48.40287" lon="2.65262">
        <ele>104.92</ele>
        <time>2018-01-27T09:37:20Z</time>
      </trkpt>
      <trkpt lat="48.40289" lon="2.65256">
        <ele>103.48</ele>
        <time>2018-01-27T09:37:33Z</time>
      </trkpt>
      <trkpt lat="48.40289" lon="2.65255">
        <ele>103.48</ele>
        <time>2018-01-27T09:37:34Z</time>
      </trkpt>
      <trkpt lat="48.40292" lon="2.65251">
        <ele>103</ele>
        <time>2018-01-27T09:37:39Z</time>
      </trkpt>
      <trkpt lat="48.40298" lon="2.65251">
        <ele>102.52</ele>
        <time>2018-01-27T09:37:48Z</time>
      </trkpt>
      <trkpt lat="48.40301" lon="2.65246">
        <ele>101.56</ele>
        <time>2018-01-27T09:37:59Z</time>
      </trkpt>
      <trkpt lat="48.40304" lon="2.65243">
        <ele>101.08</ele>
        <time>2018-01-27T09:38:03Z</time>
      </trkpt>
      <trkpt lat="48.40309" lon="2.65235">
        <ele>100.11</ele>
        <time>2018-01-27T09:38:12Z</time>
      </trkpt>
      <trkpt lat="48.40311" lon="2.65233">
        <ele>100.6</ele>
        <time>2018-01-27T09:38:13Z</time>
      </trkpt>
      <trkpt lat="48.40315" lon="2.65226">
        <ele>100.11</ele>
        <time>2018-01-27T09:38:22Z</time>
      </trkpt>
      <trkpt lat="48.40315" lon="2.65225">
        <ele>99.15</ele>
        <time>2018-01-27T09:38:23Z</time>
      </trkpt>
      <trkpt lat="48.40316" lon="2.65223">
        <ele>99.63</ele>
        <time>2018-01-27T09:38:24Z</time>
      </trkpt>
      <trkpt lat="48.40317" lon="2.65215">
        <ele>99.63</ele>
        <time>2018-01-27T09:38:35Z</time>
      </trkpt>
      <trkpt lat="48.40319" lon="2.65208">
        <ele>99.63</ele>
        <time>2018-01-27T09:38:46Z</time>
      </trkpt>
      <trkpt lat="48.40318" lon="2.65199">
        <ele>100.11</ele>
        <time>2018-01-27T09:38:58Z</time>
      </trkpt>
      <trkpt lat="48.4032" lon="2.65197">
        <ele>98.67</ele>
        <time>2018-01-27T09:39:12Z</time>
      </trkpt>
      <trkpt lat="48.40321" lon="2.65196">
        <ele>99.15</ele>
        <time>2018-01-27T09:39:14Z</time>
      </trkpt>
      <trkpt lat="48.40326" lon="2.65189">
        <ele>99.15</ele>
        <time>2018-01-27T09:39:25Z</time>
      </trkpt>
      <trkpt lat="48.4033" lon="2.65187">
        <ele>98.67</ele>
        <time>2018-01-27T09:39:36Z</time>
      </trkpt>
      <trkpt lat="48.40335" lon="2.65187">
        <ele>98.19</ele>
        <time>2018-01-27T09:39:40Z</time>
      </trkpt>
      <trkpt lat="48.40338" lon="2.65184">
        <ele>97.23</ele>
        <time>2018-01-27T09:39:49Z</time>
      </trkpt>
      <trkpt lat="48.40343" lon="2.65181">
        <ele>95.31</ele>
        <time>2018-01-27T09:40:01Z</time>
      </trkpt>
      <trkpt lat="48.40349" lon="2.65179">
        <ele>94.83</ele>
        <time>2018-01-27T09:40:07Z</time>
      </trkpt>
      <trkpt lat="48.40351" lon="2.65177">
        <ele>94.83</ele>
        <time>2018-01-27T09:40:09Z</time>
      </trkpt>
      <trkpt lat="48.40354" lon="2.6517">
        <ele>94.35</ele>
        <time>2018-01-27T09:40:15Z</time>
      </trkpt>
      <trkpt lat="48.40355" lon="2.65168">
        <ele>93.87</ele>
        <time>2018-01-27T09:40:16Z</time>
      </trkpt>
      <trkpt lat="48.40356" lon="2.65167">
        <ele>93.39</ele>
        <time>2018-01-27T09:40:17Z</time>
      </trkpt>
      <trkpt lat="48.40357" lon="2.65165">
        <ele>92.9</ele>
        <time>2018-01-27T09:40:18Z</time>
      </trkpt>
      <trkpt lat="48.40365" lon="2.6516">
        <ele>92.9</ele>
        <time>2018-01-27T09:40:28Z</time>
      </trkpt>
      <trkpt lat="48.40368" lon="2.65159">
        <ele>92.9</ele>
        <time>2018-01-27T09:40:32Z</time>
      </trkpt>
      <trkpt lat="48.40374" lon="2.65153">
        <ele>92.9</ele>
        <time>2018-01-27T09:40:39Z</time>
      </trkpt>
      <trkpt lat="48.40386" lon="2.65145">
        <ele>93.39</ele>
        <time>2018-01-27T09:40:50Z</time>
      </trkpt>
      <trkpt lat="48.40394" lon="2.65134">
        <ele>93.87</ele>
        <time>2018-01-27T09:40:58Z</time>
      </trkpt>
      <trkpt lat="48.40405" lon="2.65123">
        <ele>93.87</ele>
        <time>2018-01-27T09:41:10Z</time>
      </trkpt>
      <trkpt lat="48.40416" lon="2.65119">
        <ele>93.87</ele>
        <time>2018-01-27T09:41:20Z</time>
      </trkpt>
      <trkpt lat="48.40424" lon="2.65111">
        <ele>94.35</ele>
        <time>2018-01-27T09:41:32Z</time>
      </trkpt>
      <trkpt lat="48.40432" lon="2.65107">
        <ele>94.83</ele>
        <time>2018-01-27T09:41:41Z</time>
      </trkpt>
      <trkpt lat="48.40432" lon="2.65106">
        <ele>94.83</ele>
        <time>2018-01-27T09:41:42Z</time>
      </trkpt>
      <trkpt lat="48.4044" lon="2.65095">
        <ele>95.31</ele>
        <time>2018-01-27T09:41:52Z</time>
      </trkpt>
      <trkpt lat="48.40444" lon="2.65085">
        <ele>95.79</ele>
        <time>2018-01-27T09:42:03Z</time>
      </trkpt>
      <trkpt lat="48.40461" lon="2.65048">
        <ele>96.75</ele>
        <time>2018-01-27T09:42:15Z</time>
      </trkpt>
      <trkpt lat="48.40468" lon="2.65036">
        <ele>97.23</ele>
        <time>2018-01-27T09:42:28Z</time>
      </trkpt>
      <trkpt lat="48.40472" lon="2.65031">
        <ele>97.23</ele>
        <time>2018-01-27T09:42:34Z</time>
      </trkpt>
      <trkpt lat="48.40482" lon="2.65015">
        <ele>97.71</ele>
        <time>2018-01-27T09:42:46Z</time>
      </trkpt>
      <trkpt lat="48.40485" lon="2.65013">
        <ele>97.71</ele>
        <time>2018-01-27T09:42:50Z</time>
      </trkpt>
      <trkpt lat="48.40486" lon="2.65012">
        <ele>97.23</ele>
        <time>2018-01-27T09:42:51Z</time>
      </trkpt>
      <trkpt lat="48.40493" lon="2.65001">
        <ele>99.15</ele>
        <time>2018-01-27T09:43:03Z</time>
      </trkpt>
      <trkpt lat="48.40504" lon="2.6499">
        <ele>98.67</ele>
        <time>2018-01-27T09:43:15Z</time>
      </trkpt>
      <trkpt lat="48.40508" lon="2.64979">
        <ele>99.63</ele>
        <time>2018-01-27T09:43:26Z</time>
      </trkpt>
      <trkpt lat="48.40515" lon="2.64971">
        <ele>100.11</ele>
        <time>2018-01-27T09:43:36Z</time>
      </trkpt>
      <trkpt lat="48.40516" lon="2.64969">
        <ele>99.63</ele>
        <time>2018-01-27T09:43:37Z</time>
      </trkpt>
      <trkpt lat="48.40525" lon="2.64952">
        <ele>100.11</ele>
        <time>2018-01-27T09:43:50Z</time>
      </trkpt>
      <trkpt lat="48.40533" lon="2.64935">
        <ele>101.08</ele>
        <time>2018-01-27T09:44:02Z</time>
      </trkpt>
      <trkpt lat="48.40545" lon="2.64913">
        <ele>102.04</ele>
        <time>2018-01-27T09:44:14Z</time>
      </trkpt>
      <trkpt lat="48.40552" lon="2.64898">
        <ele>103.48</ele>
        <time>2018-01-27T09:44:26Z</time>
      </trkpt>
      <trkpt lat="48.4056" lon="2.64884">
        <ele>103.96</ele>
        <time>2018-01-27T09:44:38Z</time>
      </trkpt>
      <trkpt lat="48.40568" lon="2.64869">
        <ele>104.92</ele>
        <time>2018-01-27T09:44:50Z</time>
      </trkpt>
      <trkpt lat="48.40574" lon="2.64857">
        <ele>105.88</ele>
        <time>2018-01-27T09:45:00Z</time>
      </trkpt>
      <trkpt lat="48.40576" lon="2.64847">
        <ele>106.84</ele>
        <time>2018-01-27T09:45:07Z</time>
      </trkpt>
      <trkpt lat="48.40577" lon="2.64838">
        <ele>106.84</ele>
        <time>2018-01-27T09:45:14Z</time>
      </trkpt>
      <trkpt lat="48.40578" lon="2.64834">
        <ele>106.84</ele>
        <time>2018-01-27T09:45:17Z</time>
      </trkpt>
      <trkpt lat="48.40579" lon="2.64822">
        <ele>107.32</ele>
        <time>2018-01-27T09:45:25Z</time>
      </trkpt>
      <trkpt lat="48.40579" lon="2.64819">
        <ele>107.32</ele>
        <time>2018-01-27T09:45:26Z</time>
      </trkpt>
      <trkpt lat="48.4058" lon="2.64814">
        <ele>107.81</ele>
        <time>2018-01-27T09:45:29Z</time>
      </trkpt>
      <trkpt lat="48.4058" lon="2.64812">
        <ele>107.32</ele>
        <time>2018-01-27T09:45:30Z</time>
      </trkpt>
      <trkpt lat="48.40581" lon="2.648">
        <ele>107.81</ele>
        <time>2018-01-27T09:45:40Z</time>
      </trkpt>
      <trkpt lat="48.40581" lon="2.64792">
        <ele>107.32</ele>
        <time>2018-01-27T09:45:50Z</time>
      </trkpt>
      <trkpt lat="48.40576" lon="2.64789">
        <ele>108.29</ele>
        <time>2018-01-27T09:46:01Z</time>
      </trkpt>
      <trkpt lat="48.40567" lon="2.64785">
        <ele>107.32</ele>
        <time>2018-01-27T09:46:11Z</time>
      </trkpt>
      <trkpt lat="48.40566" lon="2.64785">
        <ele>108.29</ele>
        <time>2018-01-27T09:46:12Z</time>
      </trkpt>
      <trkpt lat="48.40565" lon="2.64785">
        <ele>108.29</ele>
        <time>2018-01-27T09:46:13Z</time>
      </trkpt>
      <trkpt lat="48.40553" lon="2.64781">
        <ele>108.29</ele>
        <time>2018-01-27T09:46:25Z</time>
      </trkpt>
      <trkpt lat="48.40546" lon="2.64778">
        <ele>109.25</ele>
        <time>2018-01-27T09:46:32Z</time>
      </trkpt>
      <trkpt lat="48.40544" lon="2.64777">
        <ele>109.25</ele>
        <time>2018-01-27T09:46:33Z</time>
      </trkpt>
      <trkpt lat="48.40542" lon="2.64777">
        <ele>109.25</ele>
        <time>2018-01-27T09:46:34Z</time>
      </trkpt>
      <trkpt lat="48.40534" lon="2.64773">
        <ele>108.77</ele>
        <time>2018-01-27T09:46:42Z</time>
      </trkpt>
      <trkpt lat="48.40526" lon="2.64772">
        <ele>109.25</ele>
        <time>2018-01-27T09:46:51Z</time>
      </trkpt>
      <trkpt lat="48.40518" lon="2.64774">
        <ele>109.73</ele>
        <time>2018-01-27T09:47:01Z</time>
      </trkpt>
      <trkpt lat="48.40518" lon="2.64774">
        <ele>110.21</ele>
        <time>2018-01-27T09:47:02Z</time>
      </trkpt>
      <trkpt lat="48.40513" lon="2.64776">
        <ele>110.21</ele>
        <time>2018-01-27T09:47:07Z</time>
      </trkpt>
      <trkpt lat="48.40512" lon="2.64777">
        <ele>109.73</ele>
        <time>2018-01-27T09:47:08Z</time>
      </trkpt>
      <trkpt lat="48.40509" lon="2.64775">
        <ele>110.21</ele>
        <time>2018-01-27T09:47:11Z</time>
      </trkpt>
      <trkpt lat="48.40501" lon="2.64768">
        <ele>111.17</ele>
        <time>2018-01-27T09:47:22Z</time>
      </trkpt>
      <trkpt lat="48.40493" lon="2.64767">
        <ele>111.65</ele>
        <time>2018-01-27T09:47:35Z</time>
      </trkpt>
      <trkpt lat="48.40492" lon="2.64767">
        <ele>112.61</ele>
        <time>2018-01-27T09:47:36Z</time>
      </trkpt>
      <trkpt lat="48.40486" lon="2.64759">
        <ele>112.61</ele>
        <time>2018-01-27T09:47:43Z</time>
      </trkpt>
      <trkpt lat="48.40484" lon="2.64757">
        <ele>112.61</ele>
        <time>2018-01-27T09:47:44Z</time>
      </trkpt>
      <trkpt lat="48.40482" lon="2.64753">
        <ele>112.61</ele>
        <time>2018-01-27T09:47:47Z</time>
      </trkpt>
      <trkpt lat="48.40475" lon="2.64748">
        <ele>114.05</ele>
        <time>2018-01-27T09:47:54Z</time>
      </trkpt>
      <trkpt lat="48.40468" lon="2.64749">
        <ele>115.01</ele>
        <time>2018-01-27T09:47:59Z</time>
      </trkpt>
      <trkpt lat="48.40466" lon="2.6475">
        <ele>115.5</ele>
        <time>2018-01-27T09:48:01Z</time>
      </trkpt>
      <trkpt lat="48.40465" lon="2.64751">
        <ele>115.98</ele>
        <time>2018-01-27T09:48:02Z</time>
      </trkpt>
      <trkpt lat="48.40462" lon="2.64751">
        <ele>116.46</ele>
        <time>2018-01-27T09:48:05Z</time>
      </trkpt>
      <trkpt lat="48.40459" lon="2.64747">
        <ele>116.46</ele>
        <time>2018-01-27T09:48:09Z</time>
      </trkpt>
      <trkpt lat="48.40457" lon="2.64744">
        <ele>116.94</ele>
        <time>2018-01-27T09:48:13Z</time>
      </trkpt>
      <trkpt lat="48.40455" lon="2.6474">
        <ele>117.42</ele>
        <time>2018-01-27T09:48:16Z</time>
      </trkpt>
      <trkpt lat="48.40448" lon="2.6473">
        <ele>119.34</ele>
        <time>2018-01-27T09:48:28Z</time>
      </trkpt>
      <trkpt lat="48.40448" lon="2.6473">
        <ele>119.34</ele>
        <time>2018-01-27T09:48:29Z</time>
      </trkpt>
      <trkpt lat="48.40436" lon="2.64724">
        <ele>121.74</ele>
        <time>2018-01-27T09:48:41Z</time>
      </trkpt>
      <trkpt lat="48.40434" lon="2.64723">
        <ele>122.71</ele>
        <time>2018-01-27T09:48:51Z</time>
      </trkpt>
      <trkpt lat="48.40431" lon="2.64713">
        <ele>125.11</ele>
        <time>2018-01-27T09:49:01Z</time>
      </trkpt>
      <trkpt lat="48.40428" lon="2.64708">
        <ele>125.11</ele>
        <time>2018-01-27T09:49:07Z</time>
      </trkpt>
      <trkpt lat="48.40421" lon="2.64702">
        <ele>126.07</ele>
        <time>2018-01-27T09:49:15Z</time>
      </trkpt>
      <trkpt lat="48.40413" lon="2.64694">
        <ele>127.51</ele>
        <time>2018-01-27T09:49:26Z</time>
      </trkpt>
      <trkpt lat="48.40409" lon="2.64688">
        <ele>127.51</ele>
        <time>2018-01-27T09:49:35Z</time>
      </trkpt>
      <trkpt lat="48.40406" lon="2.64687">
        <ele>127.99</ele>
        <time>2018-01-27T09:49:45Z</time>
      </trkpt>
      <trkpt lat="48.40397" lon="2.64686">
        <ele>128.47</ele>
        <time>2018-01-27T09:49:57Z</time>
      </trkpt>
      <trkpt lat="48.40397" lon="2.64691">
        <ele>127.99</ele>
        <time>2018-01-27T09:50:09Z</time>
      </trkpt>
      <trkpt lat="48.40398" lon="2.64688">
        <ele>127.03</ele>
        <time>2018-01-27T09:50:31Z</time>
      </trkpt>
      <trkpt lat="48.40402" lon="2.64683">
        <ele>126.07</ele>
        <time>2018-01-27T09:50:42Z</time>
      </trkpt>
      <trkpt lat="48.40405" lon="2.64673">
        <ele>125.59</ele>
        <time>2018-01-27T09:50:55Z</time>
      </trkpt>
      <trkpt lat="48.40403" lon="2.64668">
        <ele>124.63</ele>
        <time>2018-01-27T09:51:01Z</time>
      </trkpt>
      <trkpt lat="48.40403" lon="2.64667">
        <ele>124.63</ele>
        <time>2018-01-27T09:51:02Z</time>
      </trkpt>
      <trkpt lat="48.40395" lon="2.64659">
        <ele>123.67</ele>
        <time>2018-01-27T09:51:14Z</time>
      </trkpt>
      <trkpt lat="48.40392" lon="2.64653">
        <ele>123.67</ele>
        <time>2018-01-27T09:51:31Z</time>
      </trkpt>
      <trkpt lat="48.40391" lon="2.64652">
        <ele>122.71</ele>
        <time>2018-01-27T09:51:34Z</time>
      </trkpt>
      <trkpt lat="48.40388" lon="2.64648">
        <ele>122.71</ele>
        <time>2018-01-27T09:51:39Z</time>
      </trkpt>
      <trkpt lat="48.40384" lon="2.64641">
        <ele>121.74</ele>
        <time>2018-01-27T09:51:50Z</time>
      </trkpt>
      <trkpt lat="48.40377" lon="2.64635">
        <ele>121.74</ele>
        <time>2018-01-27T09:52:01Z</time>
      </trkpt>
      <trkpt lat="48.40376" lon="2.64634">
        <ele>120.78</ele>
        <time>2018-01-27T09:52:02Z</time>
      </trkpt>
      <trkpt lat="48.40372" lon="2.64628">
        <ele>121.74</ele>
        <time>2018-01-27T09:52:13Z</time>
      </trkpt>
      <trkpt lat="48.40369" lon="2.64619">
        <ele>120.3</ele>
        <time>2018-01-27T09:52:26Z</time>
      </trkpt>
      <trkpt lat="48.4037" lon="2.64603">
        <ele>120.78</ele>
        <time>2018-01-27T09:52:36Z</time>
      </trkpt>
      <trkpt lat="48.40369" lon="2.64594">
        <ele>120.3</ele>
        <time>2018-01-27T09:52:43Z</time>
      </trkpt>
      <trkpt lat="48.40369" lon="2.64592">
        <ele>120.78</ele>
        <time>2018-01-27T09:52:44Z</time>
      </trkpt>
      <trkpt lat="48.40368" lon="2.6458">
        <ele>120.78</ele>
        <time>2018-01-27T09:52:54Z</time>
      </trkpt>
      <trkpt lat="48.40369" lon="2.64564">
        <ele>121.74</ele>
        <time>2018-01-27T09:53:06Z</time>
      </trkpt>
      <trkpt lat="48.40368" lon="2.64563">
        <ele>121.26</ele>
        <time>2018-01-27T09:53:07Z</time>
      </trkpt>
      <trkpt lat="48.40361" lon="2.64545">
        <ele>120.3</ele>
        <time>2018-01-27T09:53:17Z</time>
      </trkpt>
      <trkpt lat="48.40356" lon="2.64533">
        <ele>119.34</ele>
        <time>2018-01-27T09:53:27Z</time>
      </trkpt>
      <trkpt lat="48.40355" lon="2.64531">
        <ele>119.34</ele>
        <time>2018-01-27T09:53:30Z</time>
      </trkpt>
      <trkpt lat="48.4035" lon="2.64528">
        <ele>116.94</ele>
        <time>2018-01-27T09:53:42Z</time>
      </trkpt>
      <trkpt lat="48.40343" lon="2.64526">
        <ele>115.5</ele>
        <time>2018-01-27T09:53:54Z</time>
      </trkpt>
      <trkpt lat="48.40342" lon="2.64526">
        <ele>114.53</ele>
        <time>2018-01-27T09:54:04Z</time>
      </trkpt>
      <trkpt lat="48.40336" lon="2.64527">
        <ele>113.09</ele>
        <time>2018-01-27T09:54:16Z</time>
      </trkpt>
      <trkpt lat="48.40331" lon="2.64526">
        <ele>112.61</ele>
        <time>2018-01-27T09:54:20Z</time>
      </trkpt>
      <trkpt lat="48.40329" lon="2.64527">
        <ele>112.61</ele>
        <time>2018-01-27T09:54:21Z</time>
      </trkpt>
      <trkpt lat="48.40321" lon="2.64527">
        <ele>111.65</ele>
        <time>2018-01-27T09:54:29Z</time>
      </trkpt>
      <trkpt lat="48.40319" lon="2.64527">
        <ele>111.17</ele>
        <time>2018-01-27T09:54:30Z</time>
      </trkpt>
      <trkpt lat="48.40312" lon="2.64513">
        <ele>109.73</ele>
        <time>2018-01-27T09:54:43Z</time>
      </trkpt>
      <trkpt lat="48.40311" lon="2.64495">
        <ele>108.29</ele>
        <time>2018-01-27T09:54:55Z</time>
      </trkpt>
      <trkpt lat="48.4031" lon="2.64492">
        <ele>108.29</ele>
        <time>2018-01-27T09:54:56Z</time>
      </trkpt>
      <trkpt lat="48.4031" lon="2.64485">
        <ele>107.81</ele>
        <time>2018-01-27T09:55:01Z</time>
      </trkpt>
      <trkpt lat="48.40307" lon="2.64468">
        <ele>107.32</ele>
        <time>2018-01-27T09:55:15Z</time>
      </trkpt>
      <trkpt lat="48.40304" lon="2.64477">
        <ele>107.32</ele>
        <time>2018-01-27T09:55:25Z</time>
      </trkpt>
      <trkpt lat="48.40303" lon="2.64479">
        <ele>107.32</ele>
        <time>2018-01-27T09:55:46Z</time>
      </trkpt>
      <trkpt lat="48.40299" lon="2.64479">
        <ele>107.81</ele>
        <time>2018-01-27T09:56:03Z</time>
      </trkpt>
      <trkpt lat="48.40299" lon="2.64476">
        <ele>107.81</ele>
        <time>2018-01-27T09:56:13Z</time>
      </trkpt>
      <trkpt lat="48.40298" lon="2.64477">
        <ele>107.32</ele>
        <time>2018-01-27T09:56:18Z</time>
      </trkpt>
      <trkpt lat="48.40294" lon="2.64478">
        <ele>107.32</ele>
        <time>2018-01-27T09:56:24Z</time>
      </trkpt>
      <trkpt lat="48.40294" lon="2.64479">
        <ele>107.32</ele>
        <time>2018-01-27T09:56:25Z</time>
      </trkpt>
      <trkpt lat="48.40294" lon="2.64482">
        <ele>107.32</ele>
        <time>2018-01-27T09:56:33Z</time>
      </trkpt>
      <trkpt lat="48.40294" lon="2.64484">
        <ele>106.84</ele>
        <time>2018-01-27T09:56:34Z</time>
      </trkpt>
      <trkpt lat="48.4029" lon="2.64496">
        <ele>106.84</ele>
        <time>2018-01-27T09:56:45Z</time>
      </trkpt>
      <trkpt lat="48.4029" lon="2.64497">
        <ele>106.84</ele>
        <time>2018-01-27T09:56:46Z</time>
      </trkpt>
      <trkpt lat="48.40288" lon="2.64512">
        <ele>106.36</ele>
        <time>2018-01-27T09:56:57Z</time>
      </trkpt>
      <trkpt lat="48.40287" lon="2.64515">
        <ele>105.88</ele>
        <time>2018-01-27T09:56:59Z</time>
      </trkpt>
      <trkpt lat="48.40287" lon="2.64517">
        <ele>106.36</ele>
        <time>2018-01-27T09:57:00Z</time>
      </trkpt>
      <trkpt lat="48.40286" lon="2.64523">
        <ele>105.88</ele>
        <time>2018-01-27T09:57:05Z</time>
      </trkpt>
      <trkpt lat="48.40286" lon="2.64525">
        <ele>105.88</ele>
        <time>2018-01-27T09:57:06Z</time>
      </trkpt>
      <trkpt lat="48.40284" lon="2.64536">
        <ele>105.4</ele>
        <time>2018-01-27T09:57:16Z</time>
      </trkpt>
      <trkpt lat="48.40281" lon="2.64554">
        <ele>104.92</ele>
        <time>2018-01-27T09:57:25Z</time>
      </trkpt>
      <trkpt lat="48.40281" lon="2.6456">
        <ele>104.92</ele>
        <time>2018-01-27T09:57:29Z</time>
      </trkpt>
      <trkpt lat="48.40281" lon="2.64573">
        <ele>104.92</ele>
        <time>2018-01-27T09:57:39Z</time>
      </trkpt>
      <trkpt lat="48.40279" lon="2.64578">
        <ele>103.96</ele>
        <time>2018-01-27T09:57:52Z</time>
      </trkpt>
      <trkpt lat="48.40277" lon="2.64583">
        <ele>104.92</ele>
        <time>2018-01-27T09:58:06Z</time>
      </trkpt>
      <trkpt lat="48.4028" lon="2.64592">
        <ele>104.92</ele>
        <time>2018-01-27T09:58:17Z</time>
      </trkpt>
      <trkpt lat="48.40278" lon="2.64597">
        <ele>104.44</ele>
        <time>2018-01-27T09:58:33Z</time>
      </trkpt>
      <trkpt lat="48.40277" lon="2.64615">
        <ele>103.96</ele>
        <time>2018-01-27T09:58:47Z</time>
      </trkpt>
      <trkpt lat="48.40274" lon="2.64635">
        <ele>103.48</ele>
        <time>2018-01-27T09:59:01Z</time>
      </trkpt>
      <trkpt lat="48.40272" lon="2.64638">
        <ele>103.96</ele>
        <time>2018-01-27T09:59:02Z</time>
      </trkpt>
      <trkpt lat="48.40273" lon="2.64656">
        <ele>103.48</ele>
        <time>2018-01-27T09:59:13Z</time>
      </trkpt>
      <trkpt lat="48.40271" lon="2.64671">
        <ele>103.48</ele>
        <time>2018-01-27T09:59:21Z</time>
      </trkpt>
      <trkpt lat="48.40267" lon="2.64684">
        <ele>103</ele>
        <time>2018-01-27T09:59:38Z</time>
      </trkpt>
      <trkpt lat="48.40268" lon="2.64685">
        <ele>103</ele>
        <time>2018-01-27T10:00:00Z</time>
      </trkpt>
      <trkpt lat="48.40268" lon="2.64682">
        <ele>102.04</ele>
        <time>2018-01-27T10:00:25Z</time>
      </trkpt>
      <trkpt lat="48.40268" lon="2.64685">
        <ele>102.52</ele>
        <time>2018-01-27T10:00:28Z</time>
      </trkpt>
      <trkpt lat="48.40267" lon="2.64688">
        <ele>102.52</ele>
        <time>2018-01-27T10:00:29Z</time>
      </trkpt>
      <trkpt lat="48.40264" lon="2.64711">
        <ele>102.04</ele>
        <time>2018-01-27T10:00:42Z</time>
      </trkpt>
      <trkpt lat="48.40261" lon="2.64725">
        <ele>101.56</ele>
        <time>2018-01-27T10:00:46Z</time>
      </trkpt>
      <trkpt lat="48.40261" lon="2.64727">
        <ele>101.08</ele>
        <time>2018-01-27T10:00:47Z</time>
      </trkpt>
      <trkpt lat="48.40256" lon="2.6476">
        <ele>101.08</ele>
        <time>2018-01-27T10:01:01Z</time>
      </trkpt>
      <trkpt lat="48.40255" lon="2.6478">
        <ele>100.6</ele>
        <time>2018-01-27T10:01:12Z</time>
      </trkpt>
      <trkpt lat="48.40254" lon="2.64786">
        <ele>100.6</ele>
        <time>2018-01-27T10:01:15Z</time>
      </trkpt>
      <trkpt lat="48.40252" lon="2.64795">
        <ele>100.6</ele>
        <time>2018-01-27T10:01:21Z</time>
      </trkpt>
      <trkpt lat="48.4025" lon="2.64808">
        <ele>100.6</ele>
        <time>2018-01-27T10:01:31Z</time>
      </trkpt>
      <trkpt lat="48.4025" lon="2.6481">
        <ele>100.11</ele>
        <time>2018-01-27T10:01:32Z</time>
      </trkpt>
      <trkpt lat="48.40249" lon="2.64812">
        <ele>99.63</ele>
        <time>2018-01-27T10:01:33Z</time>
      </trkpt>
      <trkpt lat="48.40242" lon="2.64835">
        <ele>100.11</ele>
        <time>2018-01-27T10:01:46Z</time>
      </trkpt>
      <trkpt lat="48.40242" lon="2.64838">
        <ele>99.63</ele>
        <time>2018-01-27T10:01:47Z</time>
      </trkpt>
      <trkpt lat="48.40241" lon="2.64841">
        <ele>99.63</ele>
        <time>2018-01-27T10:01:48Z</time>
      </trkpt>
      <trkpt lat="48.40239" lon="2.64873">
        <ele>99.63</ele>
        <time>2018-01-27T10:02:00Z</time>
      </trkpt>
      <trkpt lat="48.40238" lon="2.64881">
        <ele>99.15</ele>
        <time>2018-01-27T10:02:07Z</time>
      </trkpt>
      <trkpt lat="48.40233" lon="2.64912">
        <ele>97.71</ele>
        <time>2018-01-27T10:02:19Z</time>
      </trkpt>
      <trkpt lat="48.40232" lon="2.64927">
        <ele>98.19</ele>
        <time>2018-01-27T10:02:29Z</time>
      </trkpt>
      <trkpt lat="48.40232" lon="2.6493">
        <ele>98.19</ele>
        <time>2018-01-27T10:02:30Z</time>
      </trkpt>
      <trkpt lat="48.40231" lon="2.64954">
        <ele>98.19</ele>
        <time>2018-01-27T10:02:38Z</time>
      </trkpt>
      <trkpt lat="48.4023" lon="2.64988">
        <ele>98.19</ele>
        <time>2018-01-27T10:02:50Z</time>
      </trkpt>
      <trkpt lat="48.40228" lon="2.65002">
        <ele>97.71</ele>
        <time>2018-01-27T10:02:56Z</time>
      </trkpt>
      <trkpt lat="48.40227" lon="2.65004">
        <ele>97.71</ele>
        <time>2018-01-27T10:02:57Z</time>
      </trkpt>
      <trkpt lat="48.40218" lon="2.65008">
        <ele>98.67</ele>
        <time>2018-01-27T10:03:08Z</time>
      </trkpt>
      <trkpt lat="48.40216" lon="2.65008">
        <ele>99.15</ele>
        <time>2018-01-27T10:03:12Z</time>
      </trkpt>
      <trkpt lat="48.40216" lon="2.65007">
        <ele>99.15</ele>
        <time>2018-01-27T10:03:13Z</time>
      </trkpt>
      <trkpt lat="48.40208" lon="2.65005">
        <ele>100.6</ele>
        <time>2018-01-27T10:03:24Z</time>
      </trkpt>
      <trkpt lat="48.402" lon="2.65002">
        <ele>102.52</ele>
        <time>2018-01-27T10:03:36Z</time>
      </trkpt>
      <trkpt lat="48.40196" lon="2.64998">
        <ele>105.4</ele>
        <time>2018-01-27T10:03:49Z</time>
      </trkpt>
      <trkpt lat="48.40192" lon="2.64993">
        <ele>107.32</ele>
        <time>2018-01-27T10:04:01Z</time>
      </trkpt>
      <trkpt lat="48.40184" lon="2.64992">
        <ele>109.25</ele>
        <time>2018-01-27T10:04:13Z</time>
      </trkpt>
      <trkpt lat="48.40181" lon="2.64983">
        <ele>111.17</ele>
        <time>2018-01-27T10:04:25Z</time>
      </trkpt>
      <trkpt lat="48.40176" lon="2.64968">
        <ele>113.09</ele>
        <time>2018-01-27T10:04:37Z</time>
      </trkpt>
      <trkpt lat="48.40174" lon="2.64963">
        <ele>114.05</ele>
        <time>2018-01-27T10:04:50Z</time>
      </trkpt>
      <trkpt lat="48.4017" lon="2.64956">
        <ele>116.46</ele>
        <time>2018-01-27T10:05:02Z</time>
      </trkpt>
      <trkpt lat="48.40168" lon="2.64954">
        <ele>117.42</ele>
        <time>2018-01-27T10:05:14Z</time>
      </trkpt>
      <trkpt lat="48.40167" lon="2.64955">
        <ele>117.42</ele>
        <time>2018-01-27T10:05:26Z</time>
      </trkpt>
      <trkpt lat="48.40166" lon="2.64943">
        <ele>118.38</ele>
        <time>2018-01-27T10:05:43Z</time>
      </trkpt>
      <trkpt lat="48.40165" lon="2.64939">
        <ele>119.82</ele>
        <time>2018-01-27T10:05:58Z</time>
      </trkpt>
      <trkpt lat="48.40152" lon="2.64938">
        <ele>122.22</ele>
        <time>2018-01-27T10:06:14Z</time>
      </trkpt>
      <trkpt lat="48.40149" lon="2.64941">
        <ele>124.15</ele>
        <time>2018-01-27T10:06:25Z</time>
      </trkpt>
      <trkpt lat="48.40143" lon="2.64939">
        <ele>125.59</ele>
        <time>2018-01-27T10:06:39Z</time>
      </trkpt>
      <trkpt lat="48.40137" lon="2.64939">
        <ele>127.03</ele>
        <time>2018-01-27T10:06:51Z</time>
      </trkpt>
      <trkpt lat="48.40132" lon="2.64936">
        <ele>128.47</ele>
        <time>2018-01-27T10:07:02Z</time>
      </trkpt>
      <trkpt lat="48.40127" lon="2.64938">
        <ele>131.36</ele>
        <time>2018-01-27T10:07:15Z</time>
      </trkpt>
      <trkpt lat="48.40124" lon="2.64936">
        <ele>130.4</ele>
        <time>2018-01-27T10:07:18Z</time>
      </trkpt>
      <trkpt lat="48.40122" lon="2.64936">
        <ele>130.88</ele>
        <time>2018-01-27T10:07:21Z</time>
      </trkpt>
      <trkpt lat="48.40114" lon="2.64947">
        <ele>130.88</ele>
        <time>2018-01-27T10:07:34Z</time>
      </trkpt>
      <trkpt lat="48.40106" lon="2.64952">
        <ele>128.95</ele>
        <time>2018-01-27T10:07:45Z</time>
      </trkpt>
      <trkpt lat="48.40102" lon="2.64964">
        <ele>129.43</ele>
        <time>2018-01-27T10:07:56Z</time>
      </trkpt>
      <trkpt lat="48.40101" lon="2.64976">
        <ele>129.92</ele>
        <time>2018-01-27T10:08:07Z</time>
      </trkpt>
      <trkpt lat="48.40102" lon="2.64982">
        <ele>129.43</ele>
        <time>2018-01-27T10:08:11Z</time>
      </trkpt>
      <trkpt lat="48.40105" lon="2.64998">
        <ele>129.43</ele>
        <time>2018-01-27T10:08:23Z</time>
      </trkpt>
      <trkpt lat="48.40105" lon="2.65017">
        <ele>128.95</ele>
        <time>2018-01-27T10:08:35Z</time>
      </trkpt>
      <trkpt lat="48.40105" lon="2.65029">
        <ele>128.47</ele>
        <time>2018-01-27T10:08:48Z</time>
      </trkpt>
      <trkpt lat="48.40103" lon="2.65034">
        <ele>127.99</ele>
        <time>2018-01-27T10:08:53Z</time>
      </trkpt>
      <trkpt lat="48.40103" lon="2.65043">
        <ele>128.47</ele>
        <time>2018-01-27T10:09:00Z</time>
      </trkpt>
      <trkpt lat="48.40097" lon="2.65062">
        <ele>127.51</ele>
        <time>2018-01-27T10:09:13Z</time>
      </trkpt>
      <trkpt lat="48.40096" lon="2.65071">
        <ele>127.99</ele>
        <time>2018-01-27T10:09:21Z</time>
      </trkpt>
      <trkpt lat="48.4009" lon="2.65087">
        <ele>127.51</ele>
        <time>2018-01-27T10:09:35Z</time>
      </trkpt>
      <trkpt lat="48.40083" lon="2.65099">
        <ele>127.51</ele>
        <time>2018-01-27T10:09:44Z</time>
      </trkpt>
      <trkpt lat="48.40081" lon="2.65115">
        <ele>127.99</ele>
        <time>2018-01-27T10:09:55Z</time>
      </trkpt>
      <trkpt lat="48.40078" lon="2.65127">
        <ele>127.99</ele>
        <time>2018-01-27T10:10:06Z</time>
      </trkpt>
      <trkpt lat="48.40073" lon="2.65137">
        <ele>128.47</ele>
        <time>2018-01-27T10:10:16Z</time>
      </trkpt>
      <trkpt lat="48.40069" lon="2.65152">
        <ele>128.47</ele>
        <time>2018-01-27T10:10:27Z</time>
      </trkpt>
      <trkpt lat="48.4007" lon="2.65173">
        <ele>128.47</ele>
        <time>2018-01-27T10:10:40Z</time>
      </trkpt>
      <trkpt lat="48.40068" lon="2.65185">
        <ele>128.47</ele>
        <time>2018-01-27T10:10:47Z</time>
      </trkpt>
      <trkpt lat="48.40065" lon="2.65205">
        <ele>127.51</ele>
        <time>2018-01-27T10:10:59Z</time>
      </trkpt>
      <trkpt lat="48.40063" lon="2.65211">
        <ele>127.99</ele>
        <time>2018-01-27T10:11:04Z</time>
      </trkpt>
      <trkpt lat="48.40059" lon="2.65216">
        <ele>128.47</ele>
        <time>2018-01-27T10:11:09Z</time>
      </trkpt>
      <trkpt lat="48.40056" lon="2.65223">
        <ele>127.99</ele>
        <time>2018-01-27T10:11:13Z</time>
      </trkpt>
      <trkpt lat="48.40051" lon="2.65232">
        <ele>128.95</ele>
        <time>2018-01-27T10:11:20Z</time>
      </trkpt>
      <trkpt lat="48.4005" lon="2.65247">
        <ele>129.43</ele>
        <time>2018-01-27T10:11:29Z</time>
      </trkpt>
      <trkpt lat="48.40044" lon="2.65263">
        <ele>128.95</ele>
        <time>2018-01-27T10:11:41Z</time>
      </trkpt>
      <trkpt lat="48.40041" lon="2.65277">
        <ele>129.43</ele>
        <time>2018-01-27T10:11:55Z</time>
      </trkpt>
      <trkpt lat="48.40042" lon="2.65281">
        <ele>128.95</ele>
        <time>2018-01-27T10:12:06Z</time>
      </trkpt>
      <trkpt lat="48.40043" lon="2.65285">
        <ele>129.43</ele>
        <time>2018-01-27T10:12:09Z</time>
      </trkpt>
      <trkpt lat="48.40041" lon="2.65296">
        <ele>128.95</ele>
        <time>2018-01-27T10:12:18Z</time>
      </trkpt>
      <trkpt lat="48.40042" lon="2.65304">
        <ele>129.43</ele>
        <time>2018-01-27T10:12:27Z</time>
      </trkpt>
      <trkpt lat="48.40041" lon="2.65309">
        <ele>128.95</ele>
        <time>2018-01-27T10:12:31Z</time>
      </trkpt>
      <trkpt lat="48.4004" lon="2.6531">
        <ele>129.43</ele>
        <time>2018-01-27T10:12:32Z</time>
      </trkpt>
      <trkpt lat="48.40038" lon="2.6532">
        <ele>128.95</ele>
        <time>2018-01-27T10:12:41Z</time>
      </trkpt>
      <trkpt lat="48.40036" lon="2.6533">
        <ele>127.99</ele>
        <time>2018-01-27T10:12:48Z</time>
      </trkpt>
      <trkpt lat="48.40036" lon="2.65332">
        <ele>127.99</ele>
        <time>2018-01-27T10:12:49Z</time>
      </trkpt>
      <trkpt lat="48.40035" lon="2.65334">
        <ele>128.47</ele>
        <time>2018-01-27T10:12:50Z</time>
      </trkpt>
      <trkpt lat="48.40032" lon="2.65347">
        <ele>127.51</ele>
        <time>2018-01-27T10:13:01Z</time>
      </trkpt>
      <trkpt lat="48.40032" lon="2.65349">
        <ele>127.51</ele>
        <time>2018-01-27T10:13:02Z</time>
      </trkpt>
      <trkpt lat="48.4003" lon="2.6537">
        <ele>127.99</ele>
        <time>2018-01-27T10:13:15Z</time>
      </trkpt>
      <trkpt lat="48.40027" lon="2.65383">
        <ele>127.99</ele>
        <time>2018-01-27T10:13:24Z</time>
      </trkpt>
      <trkpt lat="48.40024" lon="2.65395">
        <ele>127.99</ele>
        <time>2018-01-27T10:13:37Z</time>
      </trkpt>
      <trkpt lat="48.40021" lon="2.654">
        <ele>127.99</ele>
        <time>2018-01-27T10:13:46Z</time>
      </trkpt>
      <trkpt lat="48.40011" lon="2.65417">
        <ele>128.47</ele>
        <time>2018-01-27T10:14:00Z</time>
      </trkpt>
      <trkpt lat="48.40008" lon="2.65419">
        <ele>128.47</ele>
        <time>2018-01-27T10:14:03Z</time>
      </trkpt>
      <trkpt lat="48.40006" lon="2.65419">
        <ele>127.99</ele>
        <time>2018-01-27T10:14:04Z</time>
      </trkpt>
      <trkpt lat="48.40005" lon="2.65419">
        <ele>127.99</ele>
        <time>2018-01-27T10:14:05Z</time>
      </trkpt>
      <trkpt lat="48.39997" lon="2.6543">
        <ele>128.47</ele>
        <time>2018-01-27T10:14:15Z</time>
      </trkpt>
      <trkpt lat="48.39995" lon="2.65434">
        <ele>127.99</ele>
        <time>2018-01-27T10:14:20Z</time>
      </trkpt>
      <trkpt lat="48.39995" lon="2.65436">
        <ele>127.99</ele>
        <time>2018-01-27T10:14:21Z</time>
      </trkpt>
      <trkpt lat="48.3999" lon="2.65447">
        <ele>127.99</ele>
        <time>2018-01-27T10:14:32Z</time>
      </trkpt>
      <trkpt lat="48.39983" lon="2.6546">
        <ele>127.03</ele>
        <time>2018-01-27T10:14:44Z</time>
      </trkpt>
      <trkpt lat="48.39979" lon="2.65471">
        <ele>125.59</ele>
        <time>2018-01-27T10:14:56Z</time>
      </trkpt>
      <trkpt lat="48.39982" lon="2.65479">
        <ele>125.11</ele>
        <time>2018-01-27T10:15:01Z</time>
      </trkpt>
      <trkpt lat="48.39982" lon="2.65488">
        <ele>125.59</ele>
        <time>2018-01-27T10:15:05Z</time>
      </trkpt>
      <trkpt lat="48.39986" lon="2.65506">
        <ele>125.59</ele>
        <time>2018-01-27T10:15:17Z</time>
      </trkpt>
      <trkpt lat="48.39986" lon="2.65508">
        <ele>126.07</ele>
        <time>2018-01-27T10:15:18Z</time>
      </trkpt>
      <trkpt lat="48.39986" lon="2.65517">
        <ele>127.03</ele>
        <time>2018-01-27T10:15:29Z</time>
      </trkpt>
      <trkpt lat="48.39987" lon="2.65518">
        <ele>127.51</ele>
        <time>2018-01-27T10:15:30Z</time>
      </trkpt>
      <trkpt lat="48.39989" lon="2.6552">
        <ele>127.99</ele>
        <time>2018-01-27T10:15:39Z</time>
      </trkpt>
      <trkpt lat="48.39991" lon="2.65527">
        <ele>129.43</ele>
        <time>2018-01-27T10:15:52Z</time>
      </trkpt>
      <trkpt lat="48.39991" lon="2.65528">
        <ele>129.43</ele>
        <time>2018-01-27T10:15:53Z</time>
      </trkpt>
      <trkpt lat="48.39992" lon="2.65535">
        <ele>130.4</ele>
        <time>2018-01-27T10:16:02Z</time>
      </trkpt>
      <trkpt lat="48.39992" lon="2.65536">
        <ele>130.88</ele>
        <time>2018-01-27T10:16:09Z</time>
      </trkpt>
      <trkpt lat="48.39992" lon="2.65537">
        <ele>129.92</ele>
        <time>2018-01-27T10:16:21Z</time>
      </trkpt>
      <trkpt lat="48.39992" lon="2.65537">
        <ele>129.43</ele>
        <time>2018-01-27T10:16:39Z</time>
      </trkpt>
      <trkpt lat="48.39991" lon="2.65539">
        <ele>129.92</ele>
        <time>2018-01-27T10:16:50Z</time>
      </trkpt>
      <trkpt lat="48.3999" lon="2.65543">
        <ele>129.43</ele>
        <time>2018-01-27T10:17:02Z</time>
      </trkpt>
      <trkpt lat="48.39986" lon="2.65542">
        <ele>128.47</ele>
        <time>2018-01-27T10:17:16Z</time>
      </trkpt>
      <trkpt lat="48.39984" lon="2.65547">
        <ele>126.07</ele>
        <time>2018-01-27T10:17:30Z</time>
      </trkpt>
      <trkpt lat="48.39983" lon="2.6555">
        <ele>125.11</ele>
        <time>2018-01-27T10:17:42Z</time>
      </trkpt>
      <trkpt lat="48.39981" lon="2.65551">
        <ele>124.15</ele>
        <time>2018-01-27T10:17:53Z</time>
      </trkpt>
      <trkpt lat="48.39979" lon="2.65554">
        <ele>123.67</ele>
        <time>2018-01-27T10:18:09Z</time>
      </trkpt>
      <trkpt lat="48.39977" lon="2.65558">
        <ele>120.3</ele>
        <time>2018-01-27T10:18:25Z</time>
      </trkpt>
      <trkpt lat="48.39981" lon="2.6556">
        <ele>121.26</ele>
        <time>2018-01-27T10:18:37Z</time>
      </trkpt>
      <trkpt lat="48.39981" lon="2.65569">
        <ele>118.86</ele>
        <time>2018-01-27T10:18:53Z</time>
      </trkpt>
      <trkpt lat="48.39981" lon="2.65575">
        <ele>117.9</ele>
        <time>2018-01-27T10:19:05Z</time>
      </trkpt>
      <trkpt lat="48.39983" lon="2.65584">
        <ele>116.94</ele>
        <time>2018-01-27T10:19:15Z</time>
      </trkpt>
      <trkpt lat="48.39983" lon="2.65594">
        <ele>115.5</ele>
        <time>2018-01-27T10:19:27Z</time>
      </trkpt>
      <trkpt lat="48.39983" lon="2.656">
        <ele>114.53</ele>
        <time>2018-01-27T10:19:37Z</time>
      </trkpt>
      <trkpt lat="48.39986" lon="2.65609">
        <ele>114.53</ele>
        <time>2018-01-27T10:19:46Z</time>
      </trkpt>
      <trkpt lat="48.39984" lon="2.65619">
        <ele>113.57</ele>
        <time>2018-01-27T10:19:58Z</time>
      </trkpt>
      <trkpt lat="48.39984" lon="2.65627">
        <ele>112.61</ele>
        <time>2018-01-27T10:20:09Z</time>
      </trkpt>
      <trkpt lat="48.39988" lon="2.65638">
        <ele>112.13</ele>
        <time>2018-01-27T10:20:23Z</time>
      </trkpt>
      <trkpt lat="48.39992" lon="2.65648">
        <ele>111.17</ele>
        <time>2018-01-27T10:20:32Z</time>
      </trkpt>
      <trkpt lat="48.39995" lon="2.65657">
        <ele>110.69</ele>
        <time>2018-01-27T10:20:44Z</time>
      </trkpt>
      <trkpt lat="48.39999" lon="2.65673">
        <ele>111.17</ele>
        <time>2018-01-27T10:20:57Z</time>
      </trkpt>
      <trkpt lat="48.39998" lon="2.65686">
        <ele>110.21</ele>
        <time>2018-01-27T10:21:09Z</time>
      </trkpt>
      <trkpt lat="48.39999" lon="2.65696">
        <ele>108.77</ele>
        <time>2018-01-27T10:21:22Z</time>
      </trkpt>
      <trkpt lat="48.40005" lon="2.65703">
        <ele>108.77</ele>
        <time>2018-01-27T10:21:33Z</time>
      </trkpt>
      <trkpt lat="48.40007" lon="2.6571">
        <ele>108.77</ele>
        <time>2018-01-27T10:21:44Z</time>
      </trkpt>
      <trkpt lat="48.40005" lon="2.6572">
        <ele>109.73</ele>
        <time>2018-01-27T10:21:55Z</time>
      </trkpt>
      <trkpt lat="48.4" lon="2.65725">
        <ele>108.77</ele>
        <time>2018-01-27T10:22:07Z</time>
      </trkpt>
      <trkpt lat="48.39999" lon="2.65731">
        <ele>108.77</ele>
        <time>2018-01-27T10:22:20Z</time>
      </trkpt>
      <trkpt lat="48.39993" lon="2.65732">
        <ele>108.29</ele>
        <time>2018-01-27T10:22:34Z</time>
      </trkpt>
      <trkpt lat="48.39991" lon="2.65727">
        <ele>108.29</ele>
        <time>2018-01-27T10:22:51Z</time>
      </trkpt>
      <trkpt lat="48.39992" lon="2.65731">
        <ele>107.32</ele>
        <time>2018-01-27T10:23:14Z</time>
      </trkpt>
      <trkpt lat="48.3999" lon="2.6574">
        <ele>106.84</ele>
        <time>2018-01-27T10:23:26Z</time>
      </trkpt>
      <trkpt lat="48.39987" lon="2.65746">
        <ele>105.88</ele>
        <time>2018-01-27T10:23:37Z</time>
      </trkpt>
      <trkpt lat="48.39986" lon="2.65749">
        <ele>105.4</ele>
        <time>2018-01-27T10:23:39Z</time>
      </trkpt>
      <trkpt lat="48.39984" lon="2.65757">
        <ele>104.92</ele>
        <time>2018-01-27T10:23:53Z</time>
      </trkpt>
      <trkpt lat="48.39986" lon="2.6576">
        <ele>105.4</ele>
        <time>2018-01-27T10:24:10Z</time>
      </trkpt>
      <trkpt lat="48.3999" lon="2.65761">
        <ele>104.92</ele>
        <time>2018-01-27T10:24:20Z</time>
      </trkpt>
      <trkpt lat="48.39989" lon="2.65766">
        <ele>105.4</ele>
        <time>2018-01-27T10:24:31Z</time>
      </trkpt>
      <trkpt lat="48.3999" lon="2.65777">
        <ele>104.92</ele>
        <time>2018-01-27T10:24:44Z</time>
      </trkpt>
      <trkpt lat="48.39991" lon="2.6578">
        <ele>104.92</ele>
        <time>2018-01-27T10:24:57Z</time>
      </trkpt>
      <trkpt lat="48.3999" lon="2.65783">
        <ele>104.44</ele>
        <time>2018-01-27T10:25:17Z</time>
      </trkpt>
      <trkpt lat="48.39981" lon="2.65787">
        <ele>103.96</ele>
        <time>2018-01-27T10:25:34Z</time>
      </trkpt>
      <trkpt lat="48.39981" lon="2.65792">
        <ele>103.96</ele>
        <time>2018-01-27T10:25:49Z</time>
      </trkpt>
      <trkpt lat="48.39981" lon="2.65788">
        <ele>103.96</ele>
        <time>2018-01-27T10:26:04Z</time>
      </trkpt>
      <trkpt lat="48.39985" lon="2.65785">
        <ele>103.48</ele>
        <time>2018-01-27T10:26:18Z</time>
      </trkpt>
      <trkpt lat="48.39987" lon="2.65794">
        <ele>104.92</ele>
        <time>2018-01-27T10:26:29Z</time>
      </trkpt>
      <trkpt lat="48.39984" lon="2.658">
        <ele>105.4</ele>
        <time>2018-01-27T10:26:39Z</time>
      </trkpt>
      <trkpt lat="48.39982" lon="2.65801">
        <ele>105.4</ele>
        <time>2018-01-27T10:26:52Z</time>
      </trkpt>
      <trkpt lat="48.39978" lon="2.65814">
        <ele>105.4</ele>
        <time>2018-01-27T10:27:02Z</time>
      </trkpt>
      <trkpt lat="48.39974" lon="2.65827">
        <ele>107.81</ele>
        <time>2018-01-27T10:27:14Z</time>
      </trkpt>
      <trkpt lat="48.39972" lon="2.65835">
        <ele>107.81</ele>
        <time>2018-01-27T10:27:25Z</time>
      </trkpt>
      <trkpt lat="48.39971" lon="2.65845">
        <ele>108.77</ele>
        <time>2018-01-27T10:27:37Z</time>
      </trkpt>
      <trkpt lat="48.39972" lon="2.65855">
        <ele>109.73</ele>
        <time>2018-01-27T10:27:46Z</time>
      </trkpt>
      <trkpt lat="48.39973" lon="2.65864">
        <ele>111.17</ele>
        <time>2018-01-27T10:27:59Z</time>
      </trkpt>
      <trkpt lat="48.39973" lon="2.65867">
        <ele>111.17</ele>
        <time>2018-01-27T10:28:17Z</time>
      </trkpt>
      <trkpt lat="48.39969" lon="2.6588">
        <ele>112.61</ele>
        <time>2018-01-27T10:28:31Z</time>
      </trkpt>
      <trkpt lat="48.39968" lon="2.65878">
        <ele>113.09</ele>
        <time>2018-01-27T10:28:47Z</time>
      </trkpt>
      <trkpt lat="48.39968" lon="2.65882">
        <ele>112.61</ele>
        <time>2018-01-27T10:29:06Z</time>
      </trkpt>
      <trkpt lat="48.39968" lon="2.65879">
        <ele>113.09</ele>
        <time>2018-01-27T10:29:26Z</time>
      </trkpt>
      <trkpt lat="48.39974" lon="2.65882">
        <ele>112.61</ele>
        <time>2018-01-27T10:30:01Z</time>
      </trkpt>
      <trkpt lat="48.39971" lon="2.65886">
        <ele>112.61</ele>
        <time>2018-01-27T10:30:23Z</time>
      </trkpt>
      <trkpt lat="48.39969" lon="2.65881">
        <ele>113.09</ele>
        <time>2018-01-27T10:30:40Z</time>
      </trkpt>
      <trkpt lat="48.39969" lon="2.65885">
        <ele>113.09</ele>
        <time>2018-01-27T10:31:04Z</time>
      </trkpt>
      <trkpt lat="48.39972" lon="2.65888">
        <ele>113.57</ele>
        <time>2018-01-27T10:31:29Z</time>
      </trkpt>
      <trkpt lat="48.39971" lon="2.65885">
        <ele>113.57</ele>
        <time>2018-01-27T10:31:34Z</time>
      </trkpt>
      <trkpt lat="48.39969" lon="2.65885">
        <ele>113.57</ele>
        <time>2018-01-27T10:31:47Z</time>
      </trkpt>
      <trkpt lat="48.39963" lon="2.65886">
        <ele>113.57</ele>
        <time>2018-01-27T10:32:00Z</time>
      </trkpt>
      <trkpt lat="48.39961" lon="2.65892">
        <ele>114.05</ele>
        <time>2018-01-27T10:32:12Z</time>
      </trkpt>
      <trkpt lat="48.39956" lon="2.65905">
        <ele>115.5</ele>
        <time>2018-01-27T10:32:21Z</time>
      </trkpt>
      <trkpt lat="48.39952" lon="2.65911">
        <ele>114.53</ele>
        <time>2018-01-27T10:32:30Z</time>
      </trkpt>
      <trkpt lat="48.39953" lon="2.65912">
        <ele>114.53</ele>
        <time>2018-01-27T10:32:31Z</time>
      </trkpt>
      <trkpt lat="48.39952" lon="2.65915">
        <ele>114.53</ele>
        <time>2018-01-27T10:32:34Z</time>
      </trkpt>
      <trkpt lat="48.39952" lon="2.65918">
        <ele>115.01</ele>
        <time>2018-01-27T10:32:37Z</time>
      </trkpt>
      <trkpt lat="48.39955" lon="2.65923">
        <ele>115.5</ele>
        <time>2018-01-27T10:32:42Z</time>
      </trkpt>
      <trkpt lat="48.39953" lon="2.6593">
        <ele>116.94</ele>
        <time>2018-01-27T10:32:50Z</time>
      </trkpt>
      <trkpt lat="48.39948" lon="2.65942">
        <ele>116.94</ele>
        <time>2018-01-27T10:33:02Z</time>
      </trkpt>
      <trkpt lat="48.39946" lon="2.65947">
        <ele>116.46</ele>
        <time>2018-01-27T10:33:12Z</time>
      </trkpt>
      <trkpt lat="48.39945" lon="2.65964">
        <ele>116.94</ele>
        <time>2018-01-27T10:33:24Z</time>
      </trkpt>
      <trkpt lat="48.39944" lon="2.65973">
        <ele>115.98</ele>
        <time>2018-01-27T10:33:36Z</time>
      </trkpt>
      <trkpt lat="48.39943" lon="2.65974">
        <ele>115.98</ele>
        <time>2018-01-27T10:33:39Z</time>
      </trkpt>
      <trkpt lat="48.39938" lon="2.65981">
        <ele>115.98</ele>
        <time>2018-01-27T10:33:50Z</time>
      </trkpt>
      <trkpt lat="48.39933" lon="2.65989">
        <ele>117.42</ele>
        <time>2018-01-27T10:34:05Z</time>
      </trkpt>
      <trkpt lat="48.39932" lon="2.65991">
        <ele>117.42</ele>
        <time>2018-01-27T10:34:07Z</time>
      </trkpt>
      <trkpt lat="48.39929" lon="2.65999">
        <ele>117.42</ele>
        <time>2018-01-27T10:34:18Z</time>
      </trkpt>
      <trkpt lat="48.39926" lon="2.6601">
        <ele>118.38</ele>
        <time>2018-01-27T10:34:31Z</time>
      </trkpt>
      <trkpt lat="48.39924" lon="2.66019">
        <ele>117.42</ele>
        <time>2018-01-27T10:34:43Z</time>
      </trkpt>
      <trkpt lat="48.39924" lon="2.66027">
        <ele>117.42</ele>
        <time>2018-01-27T10:34:58Z</time>
      </trkpt>
      <trkpt lat="48.39922" lon="2.66032">
        <ele>117.9</ele>
        <time>2018-01-27T10:35:03Z</time>
      </trkpt>
      <trkpt lat="48.39918" lon="2.66043">
        <ele>117.9</ele>
        <time>2018-01-27T10:35:12Z</time>
      </trkpt>
      <trkpt lat="48.39912" lon="2.66054">
        <ele>116.46</ele>
        <time>2018-01-27T10:35:24Z</time>
      </trkpt>
      <trkpt lat="48.39909" lon="2.6606">
        <ele>115.98</ele>
        <time>2018-01-27T10:35:34Z</time>
      </trkpt>
      <trkpt lat="48.39906" lon="2.66062">
        <ele>114.53</ele>
        <time>2018-01-27T10:35:41Z</time>
      </trkpt>
      <trkpt lat="48.39902" lon="2.66068">
        <ele>114.05</ele>
        <time>2018-01-27T10:35:52Z</time>
      </trkpt>
      <trkpt lat="48.39902" lon="2.66082">
        <ele>112.13</ele>
        <time>2018-01-27T10:36:04Z</time>
      </trkpt>
      <trkpt lat="48.39906" lon="2.66094">
        <ele>111.17</ele>
        <time>2018-01-27T10:36:19Z</time>
      </trkpt>
      <trkpt lat="48.39904" lon="2.66103">
        <ele>110.21</ele>
        <time>2018-01-27T10:36:32Z</time>
      </trkpt>
      <trkpt lat="48.39904" lon="2.66108">
        <ele>108.77</ele>
        <time>2018-01-27T10:36:49Z</time>
      </trkpt>
      <trkpt lat="48.39902" lon="2.66117">
        <ele>106.36</ele>
        <time>2018-01-27T10:37:02Z</time>
      </trkpt>
      <trkpt lat="48.39903" lon="2.66123">
        <ele>105.4</ele>
        <time>2018-01-27T10:37:08Z</time>
      </trkpt>
      <trkpt lat="48.39906" lon="2.66129">
        <ele>103.96</ele>
        <time>2018-01-27T10:37:21Z</time>
      </trkpt>
      <trkpt lat="48.39911" lon="2.66129">
        <ele>103.48</ele>
        <time>2018-01-27T10:37:29Z</time>
      </trkpt>
      <trkpt lat="48.39916" lon="2.66132">
        <ele>103</ele>
        <time>2018-01-27T10:37:34Z</time>
      </trkpt>
      <trkpt lat="48.3992" lon="2.66138">
        <ele>102.04</ele>
        <time>2018-01-27T10:37:47Z</time>
      </trkpt>
      <trkpt lat="48.39921" lon="2.66142">
        <ele>101.56</ele>
        <time>2018-01-27T10:38:04Z</time>
      </trkpt>
      <trkpt lat="48.39924" lon="2.66145">
        <ele>100.6</ele>
        <time>2018-01-27T10:38:18Z</time>
      </trkpt>
      <trkpt lat="48.39932" lon="2.66147">
        <ele>99.15</ele>
        <time>2018-01-27T10:38:35Z</time>
      </trkpt>
      <trkpt lat="48.39933" lon="2.66157">
        <ele>97.71</ele>
        <time>2018-01-27T10:38:49Z</time>
      </trkpt>
      <trkpt lat="48.39937" lon="2.66158">
        <ele>99.15</ele>
        <time>2018-01-27T10:39:03Z</time>
      </trkpt>
      <trkpt lat="48.39934" lon="2.66161">
        <ele>98.67</ele>
        <time>2018-01-27T10:39:19Z</time>
      </trkpt>
      <trkpt lat="48.39929" lon="2.66166">
        <ele>99.15</ele>
        <time>2018-01-27T10:39:34Z</time>
      </trkpt>
      <trkpt lat="48.3993" lon="2.66164">
        <ele>99.63</ele>
        <time>2018-01-27T10:39:56Z</time>
      </trkpt>
      <trkpt lat="48.39924" lon="2.66165">
        <ele>100.6</ele>
        <time>2018-01-27T10:40:10Z</time>
      </trkpt>
      <trkpt lat="48.39913" lon="2.66165">
        <ele>101.56</ele>
        <time>2018-01-27T10:40:22Z</time>
      </trkpt>
      <trkpt lat="48.39904" lon="2.66167">
        <ele>103.48</ele>
        <time>2018-01-27T10:40:37Z</time>
      </trkpt>
      <trkpt lat="48.39902" lon="2.66166">
        <ele>103.96</ele>
        <time>2018-01-27T10:40:39Z</time>
      </trkpt>
      <trkpt lat="48.39889" lon="2.66167">
        <ele>106.36</ele>
        <time>2018-01-27T10:40:53Z</time>
      </trkpt>
      <trkpt lat="48.39876" lon="2.66162">
        <ele>108.77</ele>
        <time>2018-01-27T10:41:10Z</time>
      </trkpt>
      <trkpt lat="48.39869" lon="2.66159">
        <ele>110.69</ele>
        <time>2018-01-27T10:41:22Z</time>
      </trkpt>
      <trkpt lat="48.39862" lon="2.66161">
        <ele>112.13</ele>
        <time>2018-01-27T10:41:33Z</time>
      </trkpt>
      <trkpt lat="48.39858" lon="2.66169">
        <ele>113.09</ele>
        <time>2018-01-27T10:41:44Z</time>
      </trkpt>
      <trkpt lat="48.39858" lon="2.66169">
        <ele>113.09</ele>
        <time>2018-01-27T10:41:45Z</time>
      </trkpt>
      <trkpt lat="48.39855" lon="2.66177">
        <ele>114.05</ele>
        <time>2018-01-27T10:41:52Z</time>
      </trkpt>
      <trkpt lat="48.39854" lon="2.66182">
        <ele>114.05</ele>
        <time>2018-01-27T10:41:56Z</time>
      </trkpt>
      <trkpt lat="48.39854" lon="2.66198">
        <ele>115.01</ele>
        <time>2018-01-27T10:42:08Z</time>
      </trkpt>
      <trkpt lat="48.39852" lon="2.6621">
        <ele>115.98</ele>
        <time>2018-01-27T10:42:19Z</time>
      </trkpt>
      <trkpt lat="48.39845" lon="2.66217">
        <ele>117.42</ele>
        <time>2018-01-27T10:42:31Z</time>
      </trkpt>
      <trkpt lat="48.39844" lon="2.66218">
        <ele>117.42</ele>
        <time>2018-01-27T10:42:32Z</time>
      </trkpt>
      <trkpt lat="48.39837" lon="2.6622">
        <ele>117.9</ele>
        <time>2018-01-27T10:42:41Z</time>
      </trkpt>
      <trkpt lat="48.39828" lon="2.66221">
        <ele>118.38</ele>
        <time>2018-01-27T10:42:51Z</time>
      </trkpt>
      <trkpt lat="48.3982" lon="2.66229">
        <ele>119.82</ele>
        <time>2018-01-27T10:43:04Z</time>
      </trkpt>
      <trkpt lat="48.39819" lon="2.6623">
        <ele>119.82</ele>
        <time>2018-01-27T10:43:06Z</time>
      </trkpt>
      <trkpt lat="48.39814" lon="2.66239">
        <ele>120.3</ele>
        <time>2018-01-27T10:43:17Z</time>
      </trkpt>
      <trkpt lat="48.39811" lon="2.66248">
        <ele>121.26</ele>
        <time>2018-01-27T10:43:25Z</time>
      </trkpt>
      <trkpt lat="48.39811" lon="2.66257">
        <ele>121.74</ele>
        <time>2018-01-27T10:43:31Z</time>
      </trkpt>
      <trkpt lat="48.39811" lon="2.66265">
        <ele>123.19</ele>
        <time>2018-01-27T10:43:40Z</time>
      </trkpt>
      <trkpt lat="48.39808" lon="2.66274">
        <ele>124.15</ele>
        <time>2018-01-27T10:43:45Z</time>
      </trkpt>
      <trkpt lat="48.39807" lon="2.66279">
        <ele>123.19</ele>
        <time>2018-01-27T10:43:48Z</time>
      </trkpt>
      <trkpt lat="48.39805" lon="2.66292">
        <ele>124.15</ele>
        <time>2018-01-27T10:43:58Z</time>
      </trkpt>
      <trkpt lat="48.39799" lon="2.66303">
        <ele>122.71</ele>
        <time>2018-01-27T10:44:08Z</time>
      </trkpt>
      <trkpt lat="48.39796" lon="2.66308">
        <ele>122.71</ele>
        <time>2018-01-27T10:44:11Z</time>
      </trkpt>
      <trkpt lat="48.39792" lon="2.66316">
        <ele>123.19</ele>
        <time>2018-01-27T10:44:23Z</time>
      </trkpt>
      <trkpt lat="48.3979" lon="2.66325">
        <ele>123.67</ele>
        <time>2018-01-27T10:44:36Z</time>
      </trkpt>
      <trkpt lat="48.39792" lon="2.66336">
        <ele>124.15</ele>
        <time>2018-01-27T10:44:47Z</time>
      </trkpt>
      <trkpt lat="48.39792" lon="2.66337">
        <ele>124.63</ele>
        <time>2018-01-27T10:44:48Z</time>
      </trkpt>
      <trkpt lat="48.39793" lon="2.6634">
        <ele>124.63</ele>
        <time>2018-01-27T10:44:51Z</time>
      </trkpt>
      <trkpt lat="48.39796" lon="2.66345">
        <ele>124.15</ele>
        <time>2018-01-27T10:44:57Z</time>
      </trkpt>
      <trkpt lat="48.39801" lon="2.66353">
        <ele>123.19</ele>
        <time>2018-01-27T10:45:08Z</time>
      </trkpt>
      <trkpt lat="48.39803" lon="2.66361">
        <ele>122.22</ele>
        <time>2018-01-27T10:45:15Z</time>
      </trkpt>
      <trkpt lat="48.39807" lon="2.66376">
        <ele>120.3</ele>
        <time>2018-01-27T10:45:26Z</time>
      </trkpt>
      <trkpt lat="48.39809" lon="2.66382">
        <ele>120.3</ele>
        <time>2018-01-27T10:45:40Z</time>
      </trkpt>
      <trkpt lat="48.39809" lon="2.66383">
        <ele>119.82</ele>
        <time>2018-01-27T10:45:55Z</time>
      </trkpt>
      <trkpt lat="48.39813" lon="2.6639">
        <ele>121.26</ele>
        <time>2018-01-27T10:46:07Z</time>
      </trkpt>
      <trkpt lat="48.39815" lon="2.66391">
        <ele>122.22</ele>
        <time>2018-01-27T10:46:13Z</time>
      </trkpt>
      <trkpt lat="48.39824" lon="2.664">
        <ele>123.19</ele>
        <time>2018-01-27T10:46:25Z</time>
      </trkpt>
      <trkpt lat="48.39827" lon="2.66403">
        <ele>124.15</ele>
        <time>2018-01-27T10:46:29Z</time>
      </trkpt>
      <trkpt lat="48.39834" lon="2.66404">
        <ele>125.11</ele>
        <time>2018-01-27T10:46:42Z</time>
      </trkpt>
      <trkpt lat="48.39834" lon="2.66404">
        <ele>124.15</ele>
        <time>2018-01-27T10:46:55Z</time>
      </trkpt>
      <trkpt lat="48.39832" lon="2.66402">
        <ele>124.15</ele>
        <time>2018-01-27T10:47:08Z</time>
      </trkpt>
      <trkpt lat="48.39826" lon="2.664">
        <ele>123.19</ele>
        <time>2018-01-27T10:47:19Z</time>
      </trkpt>
      <trkpt lat="48.3982" lon="2.66397">
        <ele>121.26</ele>
        <time>2018-01-27T10:47:31Z</time>
      </trkpt>
      <trkpt lat="48.39813" lon="2.66389">
        <ele>119.82</ele>
        <time>2018-01-27T10:47:42Z</time>
      </trkpt>
      <trkpt lat="48.39809" lon="2.66387">
        <ele>118.86</ele>
        <time>2018-01-27T10:47:53Z</time>
      </trkpt>
      <trkpt lat="48.39806" lon="2.66391">
        <ele>117.42</ele>
        <time>2018-01-27T10:48:06Z</time>
      </trkpt>
      <trkpt lat="48.39802" lon="2.66401">
        <ele>115.98</ele>
        <time>2018-01-27T10:48:19Z</time>
      </trkpt>
      <trkpt lat="48.39798" lon="2.66409">
        <ele>114.53</ele>
        <time>2018-01-27T10:48:32Z</time>
      </trkpt>
      <trkpt lat="48.398" lon="2.6642">
        <ele>114.05</ele>
        <time>2018-01-27T10:48:38Z</time>
      </trkpt>
      <trkpt lat="48.398" lon="2.66434">
        <ele>113.09</ele>
        <time>2018-01-27T10:48:49Z</time>
      </trkpt>
      <trkpt lat="48.39797" lon="2.66443">
        <ele>111.17</ele>
        <time>2018-01-27T10:49:00Z</time>
      </trkpt>
      <trkpt lat="48.39791" lon="2.66457">
        <ele>108.77</ele>
        <time>2018-01-27T10:49:13Z</time>
      </trkpt>
      <trkpt lat="48.39793" lon="2.66472">
        <ele>111.17</ele>
        <time>2018-01-27T10:49:25Z</time>
      </trkpt>
      <trkpt lat="48.39793" lon="2.66477">
        <ele>111.17</ele>
        <time>2018-01-27T10:49:36Z</time>
      </trkpt>
      <trkpt lat="48.39791" lon="2.66486">
        <ele>113.09</ele>
        <time>2018-01-27T10:49:47Z</time>
      </trkpt>
      <trkpt lat="48.39791" lon="2.66489">
        <ele>114.53</ele>
        <time>2018-01-27T10:49:51Z</time>
      </trkpt>
      <trkpt lat="48.39792" lon="2.66503">
        <ele>115.98</ele>
        <time>2018-01-27T10:50:03Z</time>
      </trkpt>
      <trkpt lat="48.39794" lon="2.66511">
        <ele>117.9</ele>
        <time>2018-01-27T10:50:13Z</time>
      </trkpt>
      <trkpt lat="48.39793" lon="2.66517">
        <ele>118.38</ele>
        <time>2018-01-27T10:50:19Z</time>
      </trkpt>
      <trkpt lat="48.39795" lon="2.66529">
        <ele>120.3</ele>
        <time>2018-01-27T10:50:29Z</time>
      </trkpt>
      <trkpt lat="48.39796" lon="2.66542">
        <ele>120.78</ele>
        <time>2018-01-27T10:50:38Z</time>
      </trkpt>
      <trkpt lat="48.39795" lon="2.66543">
        <ele>120.78</ele>
        <time>2018-01-27T10:50:40Z</time>
      </trkpt>
      <trkpt lat="48.39792" lon="2.66556">
        <ele>122.71</ele>
        <time>2018-01-27T10:50:52Z</time>
      </trkpt>
      <trkpt lat="48.39792" lon="2.66573">
        <ele>123.67</ele>
        <time>2018-01-27T10:51:06Z</time>
      </trkpt>
      <trkpt lat="48.3979" lon="2.66591">
        <ele>124.63</ele>
        <time>2018-01-27T10:51:18Z</time>
      </trkpt>
      <trkpt lat="48.39789" lon="2.66592">
        <ele>125.11</ele>
        <time>2018-01-27T10:51:19Z</time>
      </trkpt>
      <trkpt lat="48.39787" lon="2.66601">
        <ele>125.11</ele>
        <time>2018-01-27T10:51:26Z</time>
      </trkpt>
      <trkpt lat="48.39788" lon="2.6661">
        <ele>124.63</ele>
        <time>2018-01-27T10:51:35Z</time>
      </trkpt>
      <trkpt lat="48.39791" lon="2.6662">
        <ele>124.63</ele>
        <time>2018-01-27T10:51:43Z</time>
      </trkpt>
      <trkpt lat="48.39795" lon="2.66622">
        <ele>125.11</ele>
        <time>2018-01-27T10:51:50Z</time>
      </trkpt>
      <trkpt lat="48.39802" lon="2.66622">
        <ele>125.11</ele>
        <time>2018-01-27T10:51:58Z</time>
      </trkpt>
      <trkpt lat="48.39805" lon="2.66632">
        <ele>125.11</ele>
        <time>2018-01-27T10:52:10Z</time>
      </trkpt>
      <trkpt lat="48.39803" lon="2.66634">
        <ele>125.59</ele>
        <time>2018-01-27T10:52:21Z</time>
      </trkpt>
      <trkpt lat="48.39802" lon="2.6664">
        <ele>124.15</ele>
        <time>2018-01-27T10:52:31Z</time>
      </trkpt>
      <trkpt lat="48.39802" lon="2.66648">
        <ele>121.74</ele>
        <time>2018-01-27T10:52:45Z</time>
      </trkpt>
      <trkpt lat="48.39803" lon="2.66654">
        <ele>122.71</ele>
        <time>2018-01-27T10:52:55Z</time>
      </trkpt>
      <trkpt lat="48.39803" lon="2.66662">
        <ele>122.71</ele>
        <time>2018-01-27T10:53:07Z</time>
      </trkpt>
      <trkpt lat="48.39801" lon="2.66666">
        <ele>122.22</ele>
        <time>2018-01-27T10:53:11Z</time>
      </trkpt>
      <trkpt lat="48.39793" lon="2.66667">
        <ele>123.67</ele>
        <time>2018-01-27T10:53:19Z</time>
      </trkpt>
      <trkpt lat="48.39787" lon="2.66665">
        <ele>122.22</ele>
        <time>2018-01-27T10:53:31Z</time>
      </trkpt>
      <trkpt lat="48.39788" lon="2.66669">
        <ele>121.26</ele>
        <time>2018-01-27T10:53:44Z</time>
      </trkpt>
      <trkpt lat="48.39787" lon="2.66671">
        <ele>120.78</ele>
        <time>2018-01-27T10:53:49Z</time>
      </trkpt>
      <trkpt lat="48.39789" lon="2.66681">
        <ele>119.82</ele>
        <time>2018-01-27T10:53:59Z</time>
      </trkpt>
      <trkpt lat="48.3979" lon="2.6669">
        <ele>119.34</ele>
        <time>2018-01-27T10:54:09Z</time>
      </trkpt>
      <trkpt lat="48.39788" lon="2.66699">
        <ele>120.3</ele>
        <time>2018-01-27T10:54:18Z</time>
      </trkpt>
      <trkpt lat="48.39787" lon="2.66701">
        <ele>120.78</ele>
        <time>2018-01-27T10:54:21Z</time>
      </trkpt>
      <trkpt lat="48.39788" lon="2.66712">
        <ele>123.19</ele>
        <time>2018-01-27T10:54:33Z</time>
      </trkpt>
      <trkpt lat="48.39791" lon="2.66725">
        <ele>124.15</ele>
        <time>2018-01-27T10:54:45Z</time>
      </trkpt>
      <trkpt lat="48.39788" lon="2.66728">
        <ele>125.11</ele>
        <time>2018-01-27T10:54:57Z</time>
      </trkpt>
      <trkpt lat="48.39784" lon="2.66732">
        <ele>125.11</ele>
        <time>2018-01-27T10:55:09Z</time>
      </trkpt>
      <trkpt lat="48.39781" lon="2.66735">
        <ele>124.15</ele>
        <time>2018-01-27T10:55:20Z</time>
      </trkpt>
      <trkpt lat="48.39777" lon="2.66738">
        <ele>122.22</ele>
        <time>2018-01-27T10:55:33Z</time>
      </trkpt>
      <trkpt lat="48.39777" lon="2.66743">
        <ele>120.78</ele>
        <time>2018-01-27T10:55:43Z</time>
      </trkpt>
      <trkpt lat="48.39777" lon="2.66754">
        <ele>117.9</ele>
        <time>2018-01-27T10:55:56Z</time>
      </trkpt>
      <trkpt lat="48.39776" lon="2.66766">
        <ele>117.9</ele>
        <time>2018-01-27T10:56:05Z</time>
      </trkpt>
      <trkpt lat="48.39771" lon="2.66772">
        <ele>120.3</ele>
        <time>2018-01-27T10:56:19Z</time>
      </trkpt>
      <trkpt lat="48.39769" lon="2.66776">
        <ele>121.26</ele>
        <time>2018-01-27T10:56:29Z</time>
      </trkpt>
      <trkpt lat="48.39766" lon="2.66785">
        <ele>121.74</ele>
        <time>2018-01-27T10:56:41Z</time>
      </trkpt>
      <trkpt lat="48.39765" lon="2.66788">
        <ele>122.71</ele>
        <time>2018-01-27T10:56:51Z</time>
      </trkpt>
      <trkpt lat="48.39768" lon="2.6679">
        <ele>123.19</ele>
        <time>2018-01-27T10:57:06Z</time>
      </trkpt>
      <trkpt lat="48.39767" lon="2.66796">
        <ele>124.15</ele>
        <time>2018-01-27T10:57:19Z</time>
      </trkpt>
      <trkpt lat="48.39766" lon="2.66807">
        <ele>126.07</ele>
        <time>2018-01-27T10:57:32Z</time>
      </trkpt>
      <trkpt lat="48.39764" lon="2.66812">
        <ele>126.07</ele>
        <time>2018-01-27T10:57:43Z</time>
      </trkpt>
      <trkpt lat="48.39763" lon="2.66811">
        <ele>127.03</ele>
        <time>2018-01-27T10:57:59Z</time>
      </trkpt>
      <trkpt lat="48.39765" lon="2.66807">
        <ele>126.07</ele>
        <time>2018-01-27T10:58:17Z</time>
      </trkpt>
      <trkpt lat="48.3977" lon="2.66806">
        <ele>126.55</ele>
        <time>2018-01-27T10:58:35Z</time>
      </trkpt>
      <trkpt lat="48.39766" lon="2.66807">
        <ele>126.07</ele>
        <time>2018-01-27T10:58:56Z</time>
      </trkpt>
      <trkpt lat="48.39762" lon="2.66807">
        <ele>126.55</ele>
        <time>2018-01-27T10:59:10Z</time>
      </trkpt>
      <trkpt lat="48.39762" lon="2.6681">
        <ele>126.07</ele>
        <time>2018-01-27T10:59:20Z</time>
      </trkpt>
      <trkpt lat="48.39761" lon="2.66808">
        <ele>126.07</ele>
        <time>2018-01-27T10:59:41Z</time>
      </trkpt>
      <trkpt lat="48.39762" lon="2.66808">
        <ele>126.55</ele>
        <time>2018-01-27T10:59:58Z</time>
      </trkpt>
      <trkpt lat="48.39762" lon="2.66815">
        <ele>125.11</ele>
        <time>2018-01-27T11:00:16Z</time>
      </trkpt>
      <trkpt lat="48.39762" lon="2.66817">
        <ele>125.59</ele>
        <time>2018-01-27T11:00:18Z</time>
      </trkpt>
      <trkpt lat="48.39761" lon="2.66821">
        <ele>125.11</ele>
        <time>2018-01-27T11:00:22Z</time>
      </trkpt>
      <trkpt lat="48.39758" lon="2.66829">
        <ele>125.11</ele>
        <time>2018-01-27T11:00:33Z</time>
      </trkpt>
      <trkpt lat="48.39758" lon="2.66829">
        <ele>125.11</ele>
        <time>2018-01-27T11:00:34Z</time>
      </trkpt>
      <trkpt lat="48.39752" lon="2.66836">
        <ele>126.07</ele>
        <time>2018-01-27T11:00:45Z</time>
      </trkpt>
      <trkpt lat="48.39748" lon="2.66845">
        <ele>126.07</ele>
        <time>2018-01-27T11:00:56Z</time>
      </trkpt>
      <trkpt lat="48.39743" lon="2.66858">
        <ele>125.59</ele>
        <time>2018-01-27T11:01:07Z</time>
      </trkpt>
      <trkpt lat="48.39741" lon="2.66871">
        <ele>126.55</ele>
        <time>2018-01-27T11:01:16Z</time>
      </trkpt>
      <trkpt lat="48.39741" lon="2.66879">
        <ele>126.07</ele>
        <time>2018-01-27T11:01:25Z</time>
      </trkpt>
      <trkpt lat="48.39741" lon="2.66879">
        <ele>126.07</ele>
        <time>2018-01-27T11:01:26Z</time>
      </trkpt>
      <trkpt lat="48.39743" lon="2.66883">
        <ele>126.07</ele>
        <time>2018-01-27T11:01:37Z</time>
      </trkpt>
      <trkpt lat="48.39744" lon="2.66881">
        <ele>126.55</ele>
        <time>2018-01-27T11:01:57Z</time>
      </trkpt>
      <trkpt lat="48.39745" lon="2.6688">
        <ele>126.07</ele>
        <time>2018-01-27T11:02:16Z</time>
      </trkpt>
      <trkpt lat="48.39745" lon="2.6688">
        <ele>126.07</ele>
        <time>2018-01-27T11:02:17Z</time>
      </trkpt>
      <trkpt lat="48.3975" lon="2.66882">
        <ele>124.63</ele>
        <time>2018-01-27T11:02:30Z</time>
      </trkpt>
      <trkpt lat="48.39754" lon="2.66883">
        <ele>121.74</ele>
        <time>2018-01-27T11:02:43Z</time>
      </trkpt>
      <trkpt lat="48.39763" lon="2.6689">
        <ele>119.34</ele>
        <time>2018-01-27T11:02:56Z</time>
      </trkpt>
      <trkpt lat="48.39767" lon="2.66904">
        <ele>119.34</ele>
        <time>2018-01-27T11:03:06Z</time>
      </trkpt>
      <trkpt lat="48.39769" lon="2.66909">
        <ele>117.9</ele>
        <time>2018-01-27T11:03:17Z</time>
      </trkpt>
      <trkpt lat="48.39773" lon="2.66912">
        <ele>115.98</ele>
        <time>2018-01-27T11:03:30Z</time>
      </trkpt>
      <trkpt lat="48.39778" lon="2.66915">
        <ele>114.05</ele>
        <time>2018-01-27T11:03:45Z</time>
      </trkpt>
      <trkpt lat="48.39782" lon="2.6692">
        <ele>113.57</ele>
        <time>2018-01-27T11:04:01Z</time>
      </trkpt>
      <trkpt lat="48.39786" lon="2.66922">
        <ele>112.13</ele>
        <time>2018-01-27T11:04:12Z</time>
      </trkpt>
      <trkpt lat="48.39792" lon="2.66921">
        <ele>111.17</ele>
        <time>2018-01-27T11:04:26Z</time>
      </trkpt>
      <trkpt lat="48.39797" lon="2.66926">
        <ele>108.77</ele>
        <time>2018-01-27T11:04:39Z</time>
      </trkpt>
      <trkpt lat="48.39803" lon="2.66925">
        <ele>107.32</ele>
        <time>2018-01-27T11:04:53Z</time>
      </trkpt>
      <trkpt lat="48.39803" lon="2.66926">
        <ele>106.84</ele>
        <time>2018-01-27T11:05:05Z</time>
      </trkpt>
      <trkpt lat="48.39805" lon="2.66922">
        <ele>105.88</ele>
        <time>2018-01-27T11:05:20Z</time>
      </trkpt>
      <trkpt lat="48.39804" lon="2.66924">
        <ele>104.92</ele>
        <time>2018-01-27T11:05:35Z</time>
      </trkpt>
      <trkpt lat="48.39807" lon="2.66921">
        <ele>103.96</ele>
        <time>2018-01-27T11:05:47Z</time>
      </trkpt>
      <trkpt lat="48.39807" lon="2.66914">
        <ele>102.52</ele>
        <time>2018-01-27T11:05:58Z</time>
      </trkpt>
      <trkpt lat="48.39807" lon="2.66914">
        <ele>103</ele>
        <time>2018-01-27T11:05:59Z</time>
      </trkpt>
      <trkpt lat="48.39806" lon="2.66912">
        <ele>101.56</ele>
        <time>2018-01-27T11:06:11Z</time>
      </trkpt>
      <trkpt lat="48.39807" lon="2.66901">
        <ele>99.15</ele>
        <time>2018-01-27T11:06:25Z</time>
      </trkpt>
      <trkpt lat="48.39805" lon="2.66897">
        <ele>97.71</ele>
        <time>2018-01-27T11:06:38Z</time>
      </trkpt>
      <trkpt lat="48.3981" lon="2.66892">
        <ele>96.75</ele>
        <time>2018-01-27T11:06:49Z</time>
      </trkpt>
      <trkpt lat="48.39818" lon="2.66894">
        <ele>94.35</ele>
        <time>2018-01-27T11:07:06Z</time>
      </trkpt>
      <trkpt lat="48.39831" lon="2.66897">
        <ele>93.39</ele>
        <time>2018-01-27T11:07:20Z</time>
      </trkpt>
      <trkpt lat="48.39834" lon="2.66895">
        <ele>92.9</ele>
        <time>2018-01-27T11:07:23Z</time>
      </trkpt>
      <trkpt lat="48.39843" lon="2.6689">
        <ele>92.42</ele>
        <time>2018-01-27T11:07:35Z</time>
      </trkpt>
      <trkpt lat="48.3985" lon="2.66885">
        <ele>90.98</ele>
        <time>2018-01-27T11:07:46Z</time>
      </trkpt>
      <trkpt lat="48.39855" lon="2.66884">
        <ele>89.06</ele>
        <time>2018-01-27T11:07:58Z</time>
      </trkpt>
      <trkpt lat="48.39855" lon="2.66884">
        <ele>88.58</ele>
        <time>2018-01-27T11:08:09Z</time>
      </trkpt>
      <trkpt lat="48.39856" lon="2.66888">
        <ele>87.14</ele>
        <time>2018-01-27T11:08:19Z</time>
      </trkpt>
      <trkpt lat="48.39862" lon="2.66891">
        <ele>85.69</ele>
        <time>2018-01-27T11:08:31Z</time>
      </trkpt>
      <trkpt lat="48.39863" lon="2.66892">
        <ele>85.69</ele>
        <time>2018-01-27T11:08:33Z</time>
      </trkpt>
      <trkpt lat="48.3987" lon="2.66892">
        <ele>85.21</ele>
        <time>2018-01-27T11:08:45Z</time>
      </trkpt>
      <trkpt lat="48.39873" lon="2.66895">
        <ele>84.73</ele>
        <time>2018-01-27T11:08:50Z</time>
      </trkpt>
      <trkpt lat="48.39877" lon="2.66904">
        <ele>84.73</ele>
        <time>2018-01-27T11:08:58Z</time>
      </trkpt>
      <trkpt lat="48.39888" lon="2.66927">
        <ele>84.73</ele>
        <time>2018-01-27T11:09:09Z</time>
      </trkpt>
      <trkpt lat="48.39892" lon="2.66933">
        <ele>82.81</ele>
        <time>2018-01-27T11:09:19Z</time>
      </trkpt>
      <trkpt lat="48.39897" lon="2.66939">
        <ele>81.85</ele>
        <time>2018-01-27T11:09:29Z</time>
      </trkpt>
      <trkpt lat="48.39901" lon="2.66944">
        <ele>82.33</ele>
        <time>2018-01-27T11:09:40Z</time>
      </trkpt>
      <trkpt lat="48.39906" lon="2.66951">
        <ele>81.85</ele>
        <time>2018-01-27T11:09:51Z</time>
      </trkpt>
      <trkpt lat="48.39911" lon="2.66956">
        <ele>81.85</ele>
        <time>2018-01-27T11:10:02Z</time>
      </trkpt>
      <trkpt lat="48.39913" lon="2.66964">
        <ele>81.85</ele>
        <time>2018-01-27T11:10:12Z</time>
      </trkpt>
      <trkpt lat="48.39914" lon="2.66965">
        <ele>81.85</ele>
        <time>2018-01-27T11:10:13Z</time>
      </trkpt>
      <trkpt lat="48.39915" lon="2.66973">
        <ele>80.89</ele>
        <time>2018-01-27T11:10:20Z</time>
      </trkpt>
      <trkpt lat="48.39921" lon="2.66992">
        <ele>80.89</ele>
        <time>2018-01-27T11:10:31Z</time>
      </trkpt>
      <trkpt lat="48.3993" lon="2.67005">
        <ele>80.89</ele>
        <time>2018-01-27T11:10:45Z</time>
      </trkpt>
      <trkpt lat="48.39937" lon="2.67018">
        <ele>80.89</ele>
        <time>2018-01-27T11:10:57Z</time>
      </trkpt>
      <trkpt lat="48.39939" lon="2.67022">
        <ele>80.89</ele>
        <time>2018-01-27T11:11:00Z</time>
      </trkpt>
      <trkpt lat="48.39944" lon="2.67035">
        <ele>80.89</ele>
        <time>2018-01-27T11:11:09Z</time>
      </trkpt>
      <trkpt lat="48.39946" lon="2.67039">
        <ele>80.89</ele>
        <time>2018-01-27T11:11:10Z</time>
      </trkpt>
      <trkpt lat="48.39955" lon="2.67056">
        <ele>81.37</ele>
        <time>2018-01-27T11:11:17Z</time>
      </trkpt>
      <trkpt lat="48.39955" lon="2.67058">
        <ele>80.89</ele>
        <time>2018-01-27T11:11:18Z</time>
      </trkpt>
      <trkpt lat="48.39956" lon="2.6706">
        <ele>80.89</ele>
        <time>2018-01-27T11:11:19Z</time>
      </trkpt>
      <trkpt lat="48.39961" lon="2.67074">
        <ele>80.41</ele>
        <time>2018-01-27T11:11:25Z</time>
      </trkpt>
      <trkpt lat="48.39962" lon="2.67075">
        <ele>80.41</ele>
        <time>2018-01-27T11:11:26Z</time>
      </trkpt>
      <trkpt lat="48.39963" lon="2.67078">
        <ele>80.41</ele>
        <time>2018-01-27T11:11:27Z</time>
      </trkpt>
      <trkpt lat="48.39971" lon="2.67089">
        <ele>80.41</ele>
        <time>2018-01-27T11:11:37Z</time>
      </trkpt>
      <trkpt lat="48.39973" lon="2.67092">
        <ele>79.93</ele>
        <time>2018-01-27T11:11:41Z</time>
      </trkpt>
      <trkpt lat="48.39973" lon="2.67094">
        <ele>80.41</ele>
        <time>2018-01-27T11:11:42Z</time>
      </trkpt>
      <trkpt lat="48.39977" lon="2.67103">
        <ele>80.89</ele>
        <time>2018-01-27T11:11:50Z</time>
      </trkpt>
      <trkpt lat="48.39977" lon="2.67106">
        <ele>80.89</ele>
        <time>2018-01-27T11:11:56Z</time>
      </trkpt>
      <trkpt lat="48.39977" lon="2.67108">
        <ele>80.41</ele>
        <time>2018-01-27T11:11:57Z</time>
      </trkpt>
      <trkpt lat="48.3998" lon="2.6712">
        <ele>80.41</ele>
        <time>2018-01-27T11:12:07Z</time>
      </trkpt>
      <trkpt lat="48.39984" lon="2.67128">
        <ele>81.37</ele>
        <time>2018-01-27T11:12:18Z</time>
      </trkpt>
      <trkpt lat="48.39985" lon="2.6713">
        <ele>81.37</ele>
        <time>2018-01-27T11:12:19Z</time>
      </trkpt>
      <trkpt lat="48.39986" lon="2.67132">
        <ele>80.89</ele>
        <time>2018-01-27T11:12:20Z</time>
      </trkpt>
      <trkpt lat="48.39987" lon="2.67135">
        <ele>80.89</ele>
        <time>2018-01-27T11:12:21Z</time>
      </trkpt>
      <trkpt lat="48.39992" lon="2.67143">
        <ele>81.37</ele>
        <time>2018-01-27T11:12:28Z</time>
      </trkpt>
      <trkpt lat="48.39992" lon="2.67144">
        <ele>81.37</ele>
        <time>2018-01-27T11:12:29Z</time>
      </trkpt>
      <trkpt lat="48.40002" lon="2.6716">
        <ele>81.37</ele>
        <time>2018-01-27T11:12:38Z</time>
      </trkpt>
      <trkpt lat="48.40004" lon="2.67162">
        <ele>81.37</ele>
        <time>2018-01-27T11:12:39Z</time>
      </trkpt>
      <trkpt lat="48.40007" lon="2.67166">
        <ele>81.37</ele>
        <time>2018-01-27T11:12:42Z</time>
      </trkpt>
      <trkpt lat="48.40012" lon="2.67182">
        <ele>81.37</ele>
        <time>2018-01-27T11:12:54Z</time>
      </trkpt>
      <trkpt lat="48.40024" lon="2.67203">
        <ele>81.37</ele>
        <time>2018-01-27T11:13:04Z</time>
      </trkpt>
      <trkpt lat="48.40031" lon="2.67216">
        <ele>81.37</ele>
        <time>2018-01-27T11:13:14Z</time>
      </trkpt>
      <trkpt lat="48.40036" lon="2.67226">
        <ele>81.37</ele>
        <time>2018-01-27T11:13:19Z</time>
      </trkpt>
      <trkpt lat="48.40037" lon="2.67227">
        <ele>81.85</ele>
        <time>2018-01-27T11:13:20Z</time>
      </trkpt>
      <trkpt lat="48.40038" lon="2.6723">
        <ele>80.89</ele>
        <time>2018-01-27T11:13:21Z</time>
      </trkpt>
      <trkpt lat="48.40039" lon="2.67232">
        <ele>81.85</ele>
        <time>2018-01-27T11:13:22Z</time>
      </trkpt>
      <trkpt lat="48.40041" lon="2.67235">
        <ele>81.85</ele>
        <time>2018-01-27T11:13:23Z</time>
      </trkpt>
      <trkpt lat="48.40045" lon="2.67243">
        <ele>80.89</ele>
        <time>2018-01-27T11:13:29Z</time>
      </trkpt>
      <trkpt lat="48.40046" lon="2.67245">
        <ele>80.89</ele>
        <time>2018-01-27T11:13:30Z</time>
      </trkpt>
      <trkpt lat="48.40049" lon="2.6725">
        <ele>81.85</ele>
        <time>2018-01-27T11:13:35Z</time>
      </trkpt>
      <trkpt lat="48.4005" lon="2.67251">
        <ele>80.89</ele>
        <time>2018-01-27T11:13:36Z</time>
      </trkpt>
      <trkpt lat="48.40051" lon="2.67253">
        <ele>80.89</ele>
        <time>2018-01-27T11:13:37Z</time>
      </trkpt>
      <trkpt lat="48.4006" lon="2.67264">
        <ele>81.37</ele>
        <time>2018-01-27T11:13:48Z</time>
      </trkpt>
      <trkpt lat="48.40062" lon="2.67266">
        <ele>81.37</ele>
        <time>2018-01-27T11:13:49Z</time>
      </trkpt>
      <trkpt lat="48.40063" lon="2.67267">
        <ele>81.37</ele>
        <time>2018-01-27T11:13:50Z</time>
      </trkpt>
      <trkpt lat="48.40064" lon="2.67269">
        <ele>81.37</ele>
        <time>2018-01-27T11:13:51Z</time>
      </trkpt>
      <trkpt lat="48.40072" lon="2.67274">
        <ele>81.85</ele>
        <time>2018-01-27T11:13:59Z</time>
      </trkpt>
      <trkpt lat="48.40073" lon="2.67276">
        <ele>81.85</ele>
        <time>2018-01-27T11:14:00Z</time>
      </trkpt>
      <trkpt lat="48.40074" lon="2.67278">
        <ele>81.37</ele>
        <time>2018-01-27T11:14:01Z</time>
      </trkpt>
      <trkpt lat="48.40075" lon="2.67279">
        <ele>81.37</ele>
        <time>2018-01-27T11:14:02Z</time>
      </trkpt>
      <trkpt lat="48.40081" lon="2.67286">
        <ele>81.37</ele>
        <time>2018-01-27T11:14:09Z</time>
      </trkpt>
      <trkpt lat="48.40082" lon="2.67287">
        <ele>81.37</ele>
        <time>2018-01-27T11:14:10Z</time>
      </trkpt>
      <trkpt lat="48.40093" lon="2.67296">
        <ele>80.89</ele>
        <time>2018-01-27T11:14:22Z</time>
      </trkpt>
      <trkpt lat="48.40094" lon="2.67297">
        <ele>81.37</ele>
        <time>2018-01-27T11:14:23Z</time>
      </trkpt>
      <trkpt lat="48.40102" lon="2.67305">
        <ele>80.89</ele>
        <time>2018-01-27T11:14:32Z</time>
      </trkpt>
      <trkpt lat="48.40103" lon="2.67306">
        <ele>80.89</ele>
        <time>2018-01-27T11:14:33Z</time>
      </trkpt>
      <trkpt lat="48.40113" lon="2.67316">
        <ele>81.37</ele>
        <time>2018-01-27T11:14:43Z</time>
      </trkpt>
      <trkpt lat="48.40115" lon="2.67318">
        <ele>81.37</ele>
        <time>2018-01-27T11:14:44Z</time>
      </trkpt>
      <trkpt lat="48.40116" lon="2.67319">
        <ele>80.89</ele>
        <time>2018-01-27T11:14:45Z</time>
      </trkpt>
      <trkpt lat="48.40118" lon="2.6732">
        <ele>81.85</ele>
        <time>2018-01-27T11:14:46Z</time>
      </trkpt>
      <trkpt lat="48.4012" lon="2.67321">
        <ele>81.37</ele>
        <time>2018-01-27T11:14:47Z</time>
      </trkpt>
      <trkpt lat="48.40131" lon="2.67331">
        <ele>80.89</ele>
        <time>2018-01-27T11:15:00Z</time>
      </trkpt>
      <trkpt lat="48.40147" lon="2.67339">
        <ele>81.37</ele>
        <time>2018-01-27T11:15:13Z</time>
      </trkpt>
      <trkpt lat="48.40156" lon="2.67345">
        <ele>81.85</ele>
        <time>2018-01-27T11:15:22Z</time>
      </trkpt>
      <trkpt lat="48.40158" lon="2.67345">
        <ele>81.37</ele>
        <time>2018-01-27T11:15:23Z</time>
      </trkpt>
      <trkpt lat="48.40163" lon="2.67344">
        <ele>80.89</ele>
        <time>2018-01-27T11:15:27Z</time>
      </trkpt>
      <trkpt lat="48.40169" lon="2.67345">
        <ele>80.89</ele>
        <time>2018-01-27T11:15:35Z</time>
      </trkpt>
      <trkpt lat="48.40178" lon="2.67353">
        <ele>81.37</ele>
        <time>2018-01-27T11:15:42Z</time>
      </trkpt>
      <trkpt lat="48.4018" lon="2.67353">
        <ele>80.89</ele>
        <time>2018-01-27T11:15:43Z</time>
      </trkpt>
      <trkpt lat="48.40182" lon="2.67352">
        <ele>81.37</ele>
        <time>2018-01-27T11:15:44Z</time>
      </trkpt>
      <trkpt lat="48.40184" lon="2.67351">
        <ele>81.37</ele>
        <time>2018-01-27T11:15:45Z</time>
      </trkpt>
      <trkpt lat="48.40186" lon="2.6735">
        <ele>81.85</ele>
        <time>2018-01-27T11:15:46Z</time>
      </trkpt>
      <trkpt lat="48.40187" lon="2.67351">
        <ele>81.37</ele>
        <time>2018-01-27T11:15:47Z</time>
      </trkpt>
      <trkpt lat="48.4019" lon="2.67352">
        <ele>81.85</ele>
        <time>2018-01-27T11:15:51Z</time>
      </trkpt>
      <trkpt lat="48.40191" lon="2.67353">
        <ele>81.37</ele>
        <time>2018-01-27T11:15:52Z</time>
      </trkpt>
      <trkpt lat="48.40198" lon="2.67359">
        <ele>81.85</ele>
        <time>2018-01-27T11:16:00Z</time>
      </trkpt>
      <trkpt lat="48.40211" lon="2.67369">
        <ele>81.85</ele>
        <time>2018-01-27T11:16:12Z</time>
      </trkpt>
      <trkpt lat="48.40227" lon="2.67373">
        <ele>82.33</ele>
        <time>2018-01-27T11:16:24Z</time>
      </trkpt>
      <trkpt lat="48.4024" lon="2.67378">
        <ele>82.33</ele>
        <time>2018-01-27T11:16:37Z</time>
      </trkpt>
      <trkpt lat="48.40241" lon="2.67378">
        <ele>81.85</ele>
        <time>2018-01-27T11:16:38Z</time>
      </trkpt>
      <trkpt lat="48.40243" lon="2.67379">
        <ele>82.33</ele>
        <time>2018-01-27T11:16:39Z</time>
      </trkpt>
      <trkpt lat="48.40245" lon="2.6738">
        <ele>82.81</ele>
        <time>2018-01-27T11:16:40Z</time>
      </trkpt>
      <trkpt lat="48.40247" lon="2.6738">
        <ele>82.33</ele>
        <time>2018-01-27T11:16:41Z</time>
      </trkpt>
      <trkpt lat="48.40249" lon="2.67381">
        <ele>82.33</ele>
        <time>2018-01-27T11:16:42Z</time>
      </trkpt>
      <trkpt lat="48.40258" lon="2.67387">
        <ele>82.81</ele>
        <time>2018-01-27T11:16:51Z</time>
      </trkpt>
      <trkpt lat="48.40262" lon="2.67389">
        <ele>82.81</ele>
        <time>2018-01-27T11:16:55Z</time>
      </trkpt>
      <trkpt lat="48.40263" lon="2.67389">
        <ele>82.81</ele>
        <time>2018-01-27T11:16:56Z</time>
      </trkpt>
      <trkpt lat="48.40265" lon="2.6739">
        <ele>82.33</ele>
        <time>2018-01-27T11:16:57Z</time>
      </trkpt>
      <trkpt lat="48.40272" lon="2.67395">
        <ele>82.81</ele>
        <time>2018-01-27T11:17:04Z</time>
      </trkpt>
      <trkpt lat="48.40273" lon="2.67397">
        <ele>82.81</ele>
        <time>2018-01-27T11:17:05Z</time>
      </trkpt>
      <trkpt lat="48.40284" lon="2.67403">
        <ele>83.29</ele>
        <time>2018-01-27T11:17:16Z</time>
      </trkpt>
      <trkpt lat="48.40288" lon="2.67406">
        <ele>82.81</ele>
        <time>2018-01-27T11:17:20Z</time>
      </trkpt>
      <trkpt lat="48.4029" lon="2.67407">
        <ele>83.29</ele>
        <time>2018-01-27T11:17:21Z</time>
      </trkpt>
      <trkpt lat="48.40291" lon="2.67409">
        <ele>83.29</ele>
        <time>2018-01-27T11:17:22Z</time>
      </trkpt>
      <trkpt lat="48.40297" lon="2.67416">
        <ele>83.29</ele>
        <time>2018-01-27T11:17:29Z</time>
      </trkpt>
      <trkpt lat="48.40298" lon="2.67418">
        <ele>83.29</ele>
        <time>2018-01-27T11:17:30Z</time>
      </trkpt>
      <trkpt lat="48.40299" lon="2.67419">
        <ele>83.29</ele>
        <time>2018-01-27T11:17:31Z</time>
      </trkpt>
      <trkpt lat="48.403" lon="2.6742">
        <ele>83.29</ele>
        <time>2018-01-27T11:17:32Z</time>
      </trkpt>
      <trkpt lat="48.4031" lon="2.67431">
        <ele>83.29</ele>
        <time>2018-01-27T11:17:44Z</time>
      </trkpt>
      <trkpt lat="48.40312" lon="2.67433">
        <ele>83.77</ele>
        <time>2018-01-27T11:17:47Z</time>
      </trkpt>
      <trkpt lat="48.40313" lon="2.67434">
        <ele>83.29</ele>
        <time>2018-01-27T11:17:48Z</time>
      </trkpt>
      <trkpt lat="48.40324" lon="2.67446">
        <ele>83.77</ele>
        <time>2018-01-27T11:17:59Z</time>
      </trkpt>
      <trkpt lat="48.40334" lon="2.67459">
        <ele>83.77</ele>
        <time>2018-01-27T11:18:08Z</time>
      </trkpt>
      <trkpt lat="48.4034" lon="2.67465">
        <ele>83.29</ele>
        <time>2018-01-27T11:18:15Z</time>
      </trkpt>
      <trkpt lat="48.40343" lon="2.67466">
        <ele>84.25</ele>
        <time>2018-01-27T11:18:16Z</time>
      </trkpt>
      <trkpt lat="48.4035" lon="2.67479">
        <ele>83.77</ele>
        <time>2018-01-27T11:18:23Z</time>
      </trkpt>
      <trkpt lat="48.40352" lon="2.6748">
        <ele>83.77</ele>
        <time>2018-01-27T11:18:24Z</time>
      </trkpt>
      <trkpt lat="48.40354" lon="2.67482">
        <ele>84.25</ele>
        <time>2018-01-27T11:18:25Z</time>
      </trkpt>
      <trkpt lat="48.40355" lon="2.67483">
        <ele>83.77</ele>
        <time>2018-01-27T11:18:26Z</time>
      </trkpt>
      <trkpt lat="48.4036" lon="2.67485">
        <ele>84.25</ele>
        <time>2018-01-27T11:18:30Z</time>
      </trkpt>
      <trkpt lat="48.40361" lon="2.67486">
        <ele>84.25</ele>
        <time>2018-01-27T11:18:31Z</time>
      </trkpt>
      <trkpt lat="48.40362" lon="2.67488">
        <ele>84.25</ele>
        <time>2018-01-27T11:18:32Z</time>
      </trkpt>
      <trkpt lat="48.40368" lon="2.67494">
        <ele>84.25</ele>
        <time>2018-01-27T11:18:39Z</time>
      </trkpt>
      <trkpt lat="48.40369" lon="2.67495">
        <ele>84.25</ele>
        <time>2018-01-27T11:18:40Z</time>
      </trkpt>
      <trkpt lat="48.40371" lon="2.67497">
        <ele>84.25</ele>
        <time>2018-01-27T11:18:41Z</time>
      </trkpt>
      <trkpt lat="48.40372" lon="2.67499">
        <ele>84.73</ele>
        <time>2018-01-27T11:18:42Z</time>
      </trkpt>
      <trkpt lat="48.40373" lon="2.675">
        <ele>85.21</ele>
        <time>2018-01-27T11:18:43Z</time>
      </trkpt>
      <trkpt lat="48.40378" lon="2.67506">
        <ele>84.25</ele>
        <time>2018-01-27T11:18:49Z</time>
      </trkpt>
      <trkpt lat="48.40388" lon="2.6752">
        <ele>84.73</ele>
        <time>2018-01-27T11:19:00Z</time>
      </trkpt>
      <trkpt lat="48.40392" lon="2.67527">
        <ele>84.73</ele>
        <time>2018-01-27T11:19:07Z</time>
      </trkpt>
      <trkpt lat="48.40395" lon="2.67532">
        <ele>84.73</ele>
        <time>2018-01-27T11:19:09Z</time>
      </trkpt>
      <trkpt lat="48.40399" lon="2.67543">
        <ele>84.73</ele>
        <time>2018-01-27T11:19:16Z</time>
      </trkpt>
      <trkpt lat="48.40404" lon="2.67552">
        <ele>85.21</ele>
        <time>2018-01-27T11:19:21Z</time>
      </trkpt>
      <trkpt lat="48.40406" lon="2.67555">
        <ele>85.21</ele>
        <time>2018-01-27T11:19:26Z</time>
      </trkpt>
      <trkpt lat="48.40408" lon="2.67557">
        <ele>84.73</ele>
        <time>2018-01-27T11:19:27Z</time>
      </trkpt>
      <trkpt lat="48.40409" lon="2.67559">
        <ele>85.69</ele>
        <time>2018-01-27T11:19:28Z</time>
      </trkpt>
      <trkpt lat="48.40421" lon="2.67571">
        <ele>85.21</ele>
        <time>2018-01-27T11:19:39Z</time>
      </trkpt>
      <trkpt lat="48.40426" lon="2.6758">
        <ele>85.21</ele>
        <time>2018-01-27T11:19:46Z</time>
      </trkpt>
      <trkpt lat="48.40427" lon="2.67582">
        <ele>85.21</ele>
        <time>2018-01-27T11:19:47Z</time>
      </trkpt>
      <trkpt lat="48.40435" lon="2.67592">
        <ele>85.69</ele>
        <time>2018-01-27T11:19:56Z</time>
      </trkpt>
      <trkpt lat="48.40437" lon="2.67593">
        <ele>85.69</ele>
        <time>2018-01-27T11:19:57Z</time>
      </trkpt>
      <trkpt lat="48.40438" lon="2.67595">
        <ele>85.69</ele>
        <time>2018-01-27T11:19:58Z</time>
      </trkpt>
      <trkpt lat="48.40439" lon="2.67596">
        <ele>85.69</ele>
        <time>2018-01-27T11:19:59Z</time>
      </trkpt>
      <trkpt lat="48.4044" lon="2.67598">
        <ele>85.69</ele>
        <time>2018-01-27T11:20:00Z</time>
      </trkpt>
      <trkpt lat="48.40447" lon="2.67609">
        <ele>85.21</ele>
        <time>2018-01-27T11:20:09Z</time>
      </trkpt>
      <trkpt lat="48.40448" lon="2.67611">
        <ele>85.21</ele>
        <time>2018-01-27T11:20:10Z</time>
      </trkpt>
      <trkpt lat="48.40454" lon="2.67618">
        <ele>85.69</ele>
        <time>2018-01-27T11:20:18Z</time>
      </trkpt>
      <trkpt lat="48.40455" lon="2.67619">
        <ele>85.69</ele>
        <time>2018-01-27T11:20:19Z</time>
      </trkpt>
      <trkpt lat="48.40457" lon="2.6762">
        <ele>85.69</ele>
        <time>2018-01-27T11:20:20Z</time>
      </trkpt>
      <trkpt lat="48.40465" lon="2.6763">
        <ele>86.18</ele>
        <time>2018-01-27T11:20:30Z</time>
      </trkpt>
      <trkpt lat="48.40466" lon="2.67631">
        <ele>85.69</ele>
        <time>2018-01-27T11:20:31Z</time>
      </trkpt>
      <trkpt lat="48.40468" lon="2.67633">
        <ele>85.69</ele>
        <time>2018-01-27T11:20:32Z</time>
      </trkpt>
      <trkpt lat="48.40479" lon="2.67639">
        <ele>86.18</ele>
        <time>2018-01-27T11:20:43Z</time>
      </trkpt>
      <trkpt lat="48.40481" lon="2.6764">
        <ele>85.69</ele>
        <time>2018-01-27T11:20:44Z</time>
      </trkpt>
      <trkpt lat="48.40485" lon="2.67643">
        <ele>86.66</ele>
        <time>2018-01-27T11:20:50Z</time>
      </trkpt>
      <trkpt lat="48.40486" lon="2.67643">
        <ele>86.66</ele>
        <time>2018-01-27T11:20:51Z</time>
      </trkpt>
      <trkpt lat="48.40487" lon="2.67644">
        <ele>85.69</ele>
        <time>2018-01-27T11:20:52Z</time>
      </trkpt>
      <trkpt lat="48.40492" lon="2.6765">
        <ele>86.66</ele>
        <time>2018-01-27T11:21:04Z</time>
      </trkpt>
      <trkpt lat="48.40492" lon="2.67653">
        <ele>86.66</ele>
        <time>2018-01-27T11:21:06Z</time>
      </trkpt>
      <trkpt lat="48.40492" lon="2.67655">
        <ele>87.14</ele>
        <time>2018-01-27T11:21:07Z</time>
      </trkpt>
      <trkpt lat="48.40492" lon="2.67664">
        <ele>86.66</ele>
        <time>2018-01-27T11:21:13Z</time>
      </trkpt>
      <trkpt lat="48.40492" lon="2.67667">
        <ele>86.18</ele>
        <time>2018-01-27T11:21:14Z</time>
      </trkpt>
      <trkpt lat="48.40492" lon="2.67669">
        <ele>86.66</ele>
        <time>2018-01-27T11:21:15Z</time>
      </trkpt>
      <trkpt lat="48.40492" lon="2.67691">
        <ele>86.66</ele>
        <time>2018-01-27T11:21:26Z</time>
      </trkpt>
      <trkpt lat="48.40492" lon="2.67696">
        <ele>86.66</ele>
        <time>2018-01-27T11:21:30Z</time>
      </trkpt>
      <trkpt lat="48.40493" lon="2.67698">
        <ele>86.66</ele>
        <time>2018-01-27T11:21:31Z</time>
      </trkpt>
      <trkpt lat="48.40493" lon="2.67701">
        <ele>86.66</ele>
        <time>2018-01-27T11:21:32Z</time>
      </trkpt>
      <trkpt lat="48.40493" lon="2.67704">
        <ele>86.66</ele>
        <time>2018-01-27T11:21:33Z</time>
      </trkpt>
      <trkpt lat="48.40493" lon="2.67706">
        <ele>86.66</ele>
        <time>2018-01-27T11:21:34Z</time>
      </trkpt>
      <trkpt lat="48.40493" lon="2.67708">
        <ele>87.14</ele>
        <time>2018-01-27T11:21:35Z</time>
      </trkpt>
      <trkpt lat="48.40495" lon="2.67726">
        <ele>86.66</ele>
        <time>2018-01-27T11:21:46Z</time>
      </trkpt>
      <trkpt lat="48.40496" lon="2.67755">
        <ele>87.14</ele>
        <time>2018-01-27T11:21:58Z</time>
      </trkpt>
      <trkpt lat="48.40497" lon="2.67764">
        <ele>87.14</ele>
        <time>2018-01-27T11:22:02Z</time>
      </trkpt>
      <trkpt lat="48.40495" lon="2.6777">
        <ele>87.62</ele>
        <time>2018-01-27T11:22:06Z</time>
      </trkpt>
      <trkpt lat="48.40493" lon="2.67779">
        <ele>87.14</ele>
        <time>2018-01-27T11:22:13Z</time>
      </trkpt>
    </trkseg>
  </trk>
</gpx>